Time,TemperatureF,DewpointF,PressureIn,WindDirection,WindDirectionDegrees,WindSpeedMPH,WindSpeedGustMPH,Humidity,HourlyPrecipIn,Conditions,Clouds,dailyrainin,SoftwareType,DateUTC
2013-02-06 00:00:00,149.5,99.9,0.00,North,10,2.9,2.9,100,0.00,,SKC,0.34,VWS V14.01,2013-02-06 05:00:00,
2013-02-06 00:03:00,149.5,99.9,0.00,NNE,20,2.4,3.0,100,0.00,,SKC,0.34,VWS V14.01,2013-02-06 05:03:00,
2013-02-06 00:05:00,149.5,99.9,0.00,NNE,22,1.6,2.9,100,0.00,,SKC,0.34,VWS V14.01,2013-02-06 05:05:00,
2013-02-06 00:09:00,149.5,99.9,0.00,NNE,24,0.0,0.0,100,0.00,,SKC,0.34,VWS V14.01,2013-02-06 05:09:00,
2013-02-06 00:10:00,149.5,99.9,0.00,NNE,24,0.0,0.0,100,0.00,,SKC,0.34,VWS V14.01,2013-02-06 05:10:00,
2013-02-06 00:15:00,149.5,99.9,0.00,NNE,24,0.0,0.0,100,0.00,,SKC,0.34,VWS V14.01,2013-02-06 05:15:00,
2013-02-06 00:17:00,149.5,99.9,0.00,NNE,24,0.0,0.0,100,0.00,,SKC,0.34,VWS V14.01,2013-02-06 05:17:00,
2013-02-06 00:18:00,149.5,99.9,0.00,NNE,24,0.0,0.0,100,0.00,,SKC,0.34,VWS V14.01,2013-02-06 05:18:00,
2013-02-06 00:22:00,149.5,99.9,0.00,NNE,28,2.7,3.7,100,0.00,,SKC,0.34,VWS V14.01,2013-02-06 05:22:00,
2013-02-06 00:23:00,149.5,99.9,0.00,NNE,25,2.6,3.5,100,0.00,,SKC,0.34,VWS V14.01,2013-02-06 05:23:00,
2013-02-06 00:24:00,149.5,99.9,0.00,NNE,28,2.4,3.1,100,0.00,,SKC,0.34,VWS V14.01,2013-02-06 05:24:00,
2013-02-06 00:25:00,149.5,99.9,0.00,NNE,25,2.5,3.3,100,0.00,,SKC,0.34,VWS V14.01,2013-02-06 05:25:00,
2013-02-06 00:28:00,149.5,99.9,0.00,NNE,25,1.9,2.9,100,0.00,,SKC,0.34,VWS V14.01,2013-02-06 05:28:00,
2013-02-06 00:30:00,149.5,99.9,0.00,NNE,24,1.9,2.4,100,0.00,,SKC,0.34,VWS V14.01,2013-02-06 05:30:00,
2013-02-06 00:31:00,149.5,99.9,0.00,NNE,27,1.1,2.2,100,0.00,,SKC,0.34,VWS V14.01,2013-02-06 05:31:00,
2013-02-06 00:33:00,149.5,99.9,0.00,NNE,25,1.6,1.8,100,0.00,,SKC,0.34,VWS V14.01,2013-02-06 05:33:00,
2013-02-06 00:35:00,149.5,99.9,0.00,NNE,17,0.0,1.5,100,0.00,,SKC,0.34,VWS V14.01,2013-02-06 05:35:00,
2013-02-06 00:37:00,149.5,99.9,0.00,NNE,21,0.0,0.5,100,0.00,,SKC,0.34,VWS V14.01,2013-02-06 05:37:00,
2013-02-06 00:39:00,149.5,99.9,0.00,NNE,21,0.0,0.0,100,0.00,,SKC,0.34,VWS V14.01,2013-02-06 05:39:00,
2013-02-06 00:42:00,149.5,99.9,0.00,NNE,21,0.0,0.0,100,0.00,,SKC,0.34,VWS V14.01,2013-02-06 05:42:00,
2013-02-06 00:44:00,149.5,99.9,0.00,NNE,21,0.0,0.0,100,0.00,,SKC,0.34,VWS V14.01,2013-02-06 05:44:00,
2013-02-06 00:46:00,149.5,99.9,0.00,NNE,21,0.0,0.0,100,0.00,,SKC,0.34,VWS V14.01,2013-02-06 05:46:00,
2013-02-06 00:47:00,149.5,99.9,0.00,NNE,21,0.0,0.0,100,0.00,,SKC,0.34,VWS V14.01,2013-02-06 05:47:00,
2013-02-06 00:49:00,149.5,99.9,0.00,NNE,21,0.0,0.0,100,0.00,,SKC,0.34,VWS V14.01,2013-02-06 05:49:00,
2013-02-06 00:51:00,149.5,99.9,0.00,NNE,21,0.0,0.0,100,0.00,,SKC,0.34,VWS V14.01,2013-02-06 05:51:00,
2013-02-06 00:53:00,149.5,99.9,0.00,NNE,21,0.0,0.0,100,0.00,,SKC,0.34,VWS V14.01,2013-02-06 05:53:00,
2013-02-06 00:54:00,149.5,99.9,0.00,NNE,21,0.0,0.0,100,0.00,,SKC,0.34,VWS V14.01,2013-02-06 05:54:00,
2013-02-06 00:55:00,149.5,99.9,0.00,NNE,21,0.0,0.0,100,0.00,,SKC,0.34,VWS V14.01,2013-02-06 05:55:00,
2013-02-06 00:58:00,149.5,99.9,0.00,NNE,21,0.0,0.0,100,0.00,,SKC,0.34,VWS V14.01,2013-02-06 05:58:00,
2013-02-06 00:59:00,149.5,99.9,0.00,NNE,21,0.0,0.0,100,0.00,,SKC,0.34,VWS V14.01,2013-02-06 05:59:00,
2013-02-06 01:02:00,149.5,99.9,0.00,NNE,21,0.0,0.0,100,0.00,,SKC,0.00,VWS V14.01,2013-02-06 06:02:00,
2013-02-06 01:03:00,149.5,99.9,0.00,NNE,21,0.0,0.0,100,0.00,,SKC,0.00,VWS V14.01,2013-02-06 06:03:00,
2013-02-06 01:08:00,149.5,99.9,0.00,ENE,63,0.9,0.9,100,0.00,,SKC,0.00,VWS V14.01,2013-02-06 06:08:00,
2013-02-06 01:09:00,149.5,99.9,0.00,NE,46,1.8,2.4,100,0.00,,SKC,0.00,VWS V14.01,2013-02-06 06:09:00,
2013-02-06 01:13:00,149.5,99.9,0.00,NE,38,0.0,0.0,100,0.00,,SKC,0.00,VWS V14.01,2013-02-06 06:13:00,
2013-02-06 01:16:00,149.5,99.9,0.00,NE,38,0.0,0.0,100,0.00,,SKC,0.00,VWS V14.01,2013-02-06 06:16:00,
2013-02-06 01:18:00,149.5,99.9,0.00,NE,38,0.0,0.0,100,0.00,,SKC,0.00,VWS V14.01,2013-02-06 06:18:00,
2013-02-06 01:20:00,149.5,99.9,0.00,NE,51,1.9,2.1,100,0.00,,SKC,0.00,VWS V14.01,2013-02-06 06:20:00,
2013-02-06 01:23:00,149.5,99.9,0.00,NE,42,0.7,2.2,100,0.00,,SKC,0.00,VWS V14.01,2013-02-06 06:23:00,
2013-02-06 01:26:00,149.5,99.9,0.00,NE,44,0.0,0.0,100,0.00,,SKC,0.00,VWS V14.01,2013-02-06 06:26:00,
2013-02-06 01:27:00,149.5,99.9,0.00,NE,44,0.0,0.0,100,0.00,,SKC,0.00,VWS V14.01,2013-02-06 06:27:00,
2013-02-06 01:32:00,149.5,99.9,0.00,NE,49,2.5,3.3,100,0.00,,SKC,0.00,VWS V14.01,2013-02-06 06:32:00,
2013-02-06 01:34:00,149.5,99.9,0.00,NE,39,0.4,1.5,100,0.00,,SKC,0.00,VWS V14.01,2013-02-06 06:34:00,
2013-02-06 01:36:00,149.5,99.9,0.00,NE,39,0.0,0.0,100,0.00,,SKC,0.00,VWS V14.01,2013-02-06 06:36:00,
2013-02-06 01:37:00,149.5,99.9,0.00,NE,39,0.0,0.0,100,0.00,,SKC,0.00,VWS V14.01,2013-02-06 06:37:00,
2013-02-06 01:42:00,149.5,99.9,0.00,NE,39,0.0,0.0,100,0.00,,SKC,0.00,VWS V14.01,2013-02-06 06:42:00,
2013-02-06 01:43:00,149.5,99.9,0.00,NE,39,0.0,0.0,100,0.00,,SKC,0.00,VWS V14.01,2013-02-06 06:43:00,
2013-02-06 01:44:00,149.5,99.9,0.00,NE,39,0.0,0.0,100,0.00,,SKC,0.00,VWS V14.01,2013-02-06 06:44:00,
2013-02-06 01:46:00,149.5,99.9,0.00,NE,39,0.0,0.0,100,0.00,,SKC,0.00,VWS V14.01,2013-02-06 06:46:00,
2013-02-06 01:47:00,149.5,99.9,0.00,NE,39,0.0,0.0,100,0.00,,SKC,0.00,VWS V14.01,2013-02-06 06:47:00,
2013-02-06 01:49:00,149.5,99.9,0.00,NE,39,0.0,0.0,100,0.00,,SKC,0.00,VWS V14.01,2013-02-06 06:49:00,
2013-02-06 01:51:00,149.5,99.9,0.00,NE,39,0.5,0.5,100,0.00,,SKC,0.00,VWS V14.01,2013-02-06 06:51:00,
2013-02-06 01:53:00,149.5,99.9,0.00,NE,39,0.0,0.0,100,0.00,,SKC,0.00,VWS V14.01,2013-02-06 06:53:00,
2013-02-06 01:55:00,149.5,99.9,0.00,NE,39,0.0,0.0,100,0.00,,SKC,0.00,VWS V14.01,2013-02-06 06:55:00,
2013-02-06 01:57:00,149.5,99.9,0.00,NE,39,0.0,0.0,100,0.00,,SKC,0.00,VWS V14.01,2013-02-06 06:57:00,
2013-02-06 01:58:00,149.5,99.9,0.00,NE,49,1.9,1.9,100,0.00,,SKC,0.00,VWS V14.01,2013-02-06 06:58:00,
2013-02-06 02:00:00,149.5,99.9,0.00,NE,41,0.0,2.1,100,0.00,,SKC,0.00,VWS V14.01,2013-02-06 07:00:00,
2013-02-06 02:03:00,149.5,99.9,0.00,NE,41,0.0,0.0,100,0.00,,SKC,0.00,VWS V14.01,2013-02-06 07:03:00,
2013-02-06 02:04:00,149.5,99.9,0.00,NE,41,0.0,0.0,100,0.00,,SKC,0.00,VWS V14.01,2013-02-06 07:04:00,
2013-02-06 02:05:00,149.5,99.9,0.00,NE,41,0.0,0.0,100,0.00,,SKC,0.00,VWS V14.01,2013-02-06 07:05:00,
2013-02-06 02:09:00,149.5,99.9,0.00,NE,41,0.0,0.0,100,0.00,,SKC,0.00,VWS V14.01,2013-02-06 07:09:00,
2013-02-06 02:10:00,149.5,99.9,0.00,NE,41,0.0,0.0,100,0.00,,SKC,0.00,VWS V14.01,2013-02-06 07:10:00,
2013-02-06 02:11:00,149.5,99.9,0.00,NE,41,0.0,0.0,100,0.00,,SKC,0.00,VWS V14.01,2013-02-06 07:11:00,
2013-02-06 02:12:00,149.5,99.9,0.00,NE,41,0.0,0.0,100,0.00,,SKC,0.00,VWS V14.01,2013-02-06 07:12:00,
2013-02-06 02:14:00,149.5,99.9,0.00,NE,41,0.0,0.0,100,0.00,,SKC,0.00,VWS V14.01,2013-02-06 07:14:00,
2013-02-06 02:17:00,149.5,99.9,0.00,NE,53,1.5,1.5,100,0.00,,SKC,0.00,VWS V14.01,2013-02-06 07:17:00,
2013-02-06 02:20:00,149.5,99.9,0.00,NE,49,1.2,2.7,100,0.00,,SKC,0.00,VWS V14.01,2013-02-06 07:20:00,
2013-02-06 02:22:00,149.5,99.9,0.00,NE,38,0.0,1.7,100,0.00,,SKC,0.00,VWS V14.01,2013-02-06 07:22:00,
2013-02-06 02:24:00,149.5,99.9,0.00,NE,38,0.0,0.0,100,0.00,,SKC,0.00,VWS V14.01,2013-02-06 07:24:00,
2013-02-06 02:28:00,149.5,99.9,0.00,NE,38,0.0,0.0,100,0.00,,SKC,0.00,VWS V14.01,2013-02-06 07:28:00,
2013-02-06 02:31:00,149.5,99.9,0.00,NE,38,0.0,0.0,100,0.00,,SKC,0.00,VWS V14.01,2013-02-06 07:31:00,
2013-02-06 02:32:00,149.5,99.9,0.00,NE,38,0.0,0.0,100,0.00,,SKC,0.00,VWS V14.01,2013-02-06 07:32:00,
2013-02-06 02:35:00,149.5,99.9,0.00,NE,38,0.0,0.0,100,0.00,,SKC,0.00,VWS V14.01,2013-02-06 07:35:00,
2013-02-06 02:36:00,149.5,99.9,0.00,NE,38,0.0,0.0,100,0.00,,SKC,0.00,VWS V14.01,2013-02-06 07:36:00,
2013-02-06 02:37:00,149.5,99.9,0.00,NE,38,0.0,0.0,100,0.00,,SKC,0.00,VWS V14.01,2013-02-06 07:37:00,
2013-02-06 02:40:00,149.5,99.9,0.00,NE,38,0.0,0.0,100,0.00,,SKC,0.00,VWS V14.01,2013-02-06 07:40:00,
2013-02-06 02:42:00,149.5,99.9,0.00,NE,38,0.0,0.0,100,0.00,,SKC,0.00,VWS V14.01,2013-02-06 07:42:00,
2013-02-06 02:43:00,149.5,99.9,0.00,NE,38,0.0,0.0,100,0.00,,SKC,0.00,VWS V14.01,2013-02-06 07:43:00,
2013-02-06 02:44:00,149.5,99.9,0.00,NE,38,0.0,0.0,100,0.00,,SKC,0.00,VWS V14.01,2013-02-06 07:44:00,
2013-02-06 02:48:00,149.5,99.9,0.00,NE,38,0.0,0.0,100,0.00,,SKC,0.00,VWS V14.01,2013-02-06 07:48:00,
2013-02-06 02:51:00,149.5,99.9,0.00,NE,38,0.0,0.0,100,0.00,,SKC,0.00,VWS V14.01,2013-02-06 07:51:00,
2013-02-06 02:52:00,149.5,99.9,0.00,NE,38,0.0,0.0,100,0.00,,SKC,0.00,VWS V14.01,2013-02-06 07:52:00,
2013-02-06 02:53:00,149.5,99.9,0.00,NE,38,0.0,0.0,100,0.00,,SKC,0.00,VWS V14.01,2013-02-06 07:53:00,
2013-02-06 02:54:00,149.5,99.9,0.00,NE,38,0.0,0.0,100,0.00,,SKC,0.00,VWS V14.01,2013-02-06 07:54:00,
2013-02-06 02:57:00,149.5,99.9,0.00,NE,38,0.0,0.0,100,0.00,,SKC,0.00,VWS V14.01,2013-02-06 07:57:00,
2013-02-06 02:59:00,149.5,99.9,0.00,NE,38,0.0,0.0,100,0.00,,SKC,0.00,VWS V14.01,2013-02-06 07:59:00,
2013-02-06 03:00:00,149.5,99.9,0.00,NE,38,0.0,0.0,100,0.00,,SKC,0.00,VWS V14.01,2013-02-06 08:00:00,
2013-02-06 03:01:00,149.5,99.9,0.00,NE,38,0.0,0.0,100,0.00,,SKC,0.00,VWS V14.01,2013-02-06 08:01:00,
2013-02-06 03:04:00,149.5,99.9,0.00,NE,38,0.0,0.0,100,0.00,,SKC,0.00,VWS V14.01,2013-02-06 08:04:00,
2013-02-06 03:05:00,149.5,99.9,0.00,NE,38,0.0,0.0,100,0.00,,SKC,0.00,VWS V14.01,2013-02-06 08:05:00,
2013-02-06 03:06:00,149.5,99.9,0.00,NE,38,0.0,0.0,100,0.00,,SKC,0.00,VWS V14.01,2013-02-06 08:06:00,
2013-02-06 03:07:00,149.5,99.9,0.00,NE,38,0.0,0.0,100,0.00,,SKC,0.00,VWS V14.01,2013-02-06 08:07:00,
2013-02-06 03:09:00,149.5,99.9,0.00,NE,38,0.0,0.0,100,0.00,,SKC,0.00,VWS V14.01,2013-02-06 08:09:00,
2013-02-06 03:10:00,149.5,99.9,0.00,NE,38,0.0,0.0,100,0.00,,SKC,0.00,VWS V14.01,2013-02-06 08:10:00,
2013-02-06 03:11:00,149.5,99.9,0.00,NE,38,0.0,0.0,100,0.00,,SKC,0.00,VWS V14.01,2013-02-06 08:11:00,
2013-02-06 03:16:00,149.5,99.9,0.00,NE,38,0.0,0.0,100,0.00,,SKC,0.00,VWS V14.01,2013-02-06 08:16:00,
2013-02-06 03:19:00,149.5,99.9,0.00,NE,38,0.0,0.0,100,0.00,,SKC,0.00,VWS V14.01,2013-02-06 08:19:00,
2013-02-06 03:21:00,149.5,99.9,0.00,NE,38,0.0,0.0,100,0.00,,SKC,0.00,VWS V14.01,2013-02-06 08:21:00,
2013-02-06 03:23:00,149.5,99.9,0.00,NE,38,0.0,0.0,100,0.00,,SKC,0.00,VWS V14.01,2013-02-06 08:23:00,
2013-02-06 03:25:00,149.5,99.9,0.00,NE,38,0.0,0.0,100,0.00,,SKC,0.00,VWS V14.01,2013-02-06 08:25:00,
2013-02-06 03:26:00,149.5,99.9,0.00,NE,38,0.0,0.0,100,0.00,,SKC,0.00,VWS V14.01,2013-02-06 08:26:00,
2013-02-06 03:30:00,149.5,99.9,0.00,NE,38,0.0,0.0,100,0.00,,SKC,0.00,VWS V14.01,2013-02-06 08:30:00,
2013-02-06 03:34:00,149.5,99.9,0.00,NE,38,0.0,0.0,100,0.00,,SKC,0.00,VWS V14.01,2013-02-06 08:34:00,
2013-02-06 03:35:00,149.5,99.9,0.00,NE,38,0.0,0.0,100,0.00,,SKC,0.00,VWS V14.01,2013-02-06 08:35:00,
2013-02-06 03:36:00,149.5,99.9,0.00,NE,38,0.0,0.0,100,0.00,,SKC,0.00,VWS V14.01,2013-02-06 08:36:00,
2013-02-06 03:38:00,149.5,99.9,0.00,NE,38,0.0,0.0,100,0.00,,SKC,0.00,VWS V14.01,2013-02-06 08:38:00,
2013-02-06 03:40:00,149.5,99.9,0.00,NE,38,0.0,0.0,100,0.00,,SKC,0.00,VWS V14.01,2013-02-06 08:40:00,
2013-02-06 03:41:00,149.5,99.9,0.00,NE,38,0.0,0.0,100,0.00,,SKC,0.00,VWS V14.01,2013-02-06 08:41:00,
2013-02-06 03:44:00,149.5,99.9,0.00,NE,38,0.0,0.0,100,0.00,,SKC,0.00,VWS V14.01,2013-02-06 08:44:00,
2013-02-06 03:46:00,149.5,99.9,0.00,NE,38,0.0,0.0,100,0.00,,SKC,0.00,VWS V14.01,2013-02-06 08:46:00,
2013-02-06 03:47:00,149.5,99.9,0.00,NE,38,0.0,0.0,100,0.00,,SKC,0.00,VWS V14.01,2013-02-06 08:47:00,
2013-02-06 03:51:00,149.5,99.9,0.00,NE,38,0.0,0.0,100,0.00,,SKC,0.00,VWS V14.01,2013-02-06 08:51:00,
2013-02-06 03:52:00,149.5,99.9,0.00,NE,38,0.0,0.0,100,0.00,,SKC,0.00,VWS V14.01,2013-02-06 08:52:00,
2013-02-06 03:53:00,149.5,99.9,0.00,NE,38,0.0,0.0,100,0.00,,SKC,0.00,VWS V14.01,2013-02-06 08:53:00,
2013-02-06 03:58:00,149.5,99.9,0.00,NE,38,0.0,0.0,100,0.00,,SKC,0.00,VWS V14.01,2013-02-06 08:58:00,
2013-02-06 04:01:00,149.5,99.9,0.00,NE,38,0.0,0.0,100,0.00,,SKC,0.00,VWS V14.01,2013-02-06 09:01:00,
2013-02-06 04:04:00,149.5,99.9,0.00,NE,38,0.0,0.0,100,0.00,,SKC,0.00,VWS V14.01,2013-02-06 09:04:00,
2013-02-06 04:05:00,149.5,99.9,0.00,NE,38,0.0,0.0,100,0.00,,SKC,0.00,VWS V14.01,2013-02-06 09:05:00,
2013-02-06 04:06:00,149.5,99.9,0.00,NE,38,0.0,0.0,100,0.00,,SKC,0.00,VWS V14.01,2013-02-06 09:06:00,
2013-02-06 04:09:00,149.5,99.9,0.00,NE,38,0.0,0.0,100,0.00,,SKC,0.00,VWS V14.01,2013-02-06 09:09:00,
2013-02-06 04:11:00,149.5,99.9,0.00,NE,38,0.0,0.0,100,0.00,,SKC,0.00,VWS V14.01,2013-02-06 09:11:00,
2013-02-06 04:12:00,149.5,99.9,0.00,NE,38,0.0,0.0,100,0.00,,SKC,0.00,VWS V14.01,2013-02-06 09:12:00,
2013-02-06 04:14:00,149.5,99.9,0.00,NE,38,0.0,0.0,100,0.00,,SKC,0.00,VWS V14.01,2013-02-06 09:14:00,
2013-02-06 04:15:00,149.5,99.9,0.00,NE,38,0.0,0.0,100,0.00,,SKC,0.00,VWS V14.01,2013-02-06 09:15:00,
2013-02-06 04:17:00,149.5,99.9,0.00,NE,38,0.0,0.0,100,0.00,,SKC,0.00,VWS V14.01,2013-02-06 09:17:00,
2013-02-06 04:19:00,149.5,99.9,0.00,NE,38,0.0,0.0,100,0.00,,SKC,0.00,VWS V14.01,2013-02-06 09:19:00,
2013-02-06 04:20:00,149.5,99.9,0.00,NE,38,0.0,0.0,100,0.00,,SKC,0.00,VWS V14.01,2013-02-06 09:20:00,
2013-02-06 04:23:00,149.5,99.9,0.00,NE,38,0.0,0.0,100,0.00,,SKC,0.00,VWS V14.01,2013-02-06 09:23:00,
2013-02-06 04:26:00,149.5,99.9,0.00,NE,38,0.0,0.0,100,0.00,,SKC,0.00,VWS V14.01,2013-02-06 09:26:00,
2013-02-06 04:28:00,149.5,99.9,0.00,NE,38,0.0,0.0,100,0.00,,SKC,0.00,VWS V14.01,2013-02-06 09:28:00,
2013-02-06 04:29:00,149.5,99.9,0.00,NE,38,0.0,0.0,100,0.00,,SKC,0.00,VWS V14.01,2013-02-06 09:29:00,
2013-02-06 04:30:00,149.5,99.9,0.00,NE,38,0.0,0.0,100,0.00,,SKC,0.00,VWS V14.01,2013-02-06 09:30:00,
2013-02-06 04:31:00,149.5,99.9,0.00,NE,38,0.0,0.0,100,0.00,,SKC,0.00,VWS V14.01,2013-02-06 09:31:00,
2013-02-06 04:36:00,149.5,99.9,0.00,NE,38,1.2,1.2,100,0.00,,SKC,0.00,VWS V14.01,2013-02-06 09:36:00,
2013-02-06 04:38:00,149.5,99.9,0.00,NNE,31,0.7,3.7,100,0.00,,SKC,0.00,VWS V14.01,2013-02-06 09:38:00,
2013-02-06 04:40:00,149.5,99.9,0.00,NNE,31,0.0,0.0,100,0.00,,SKC,0.00,VWS V14.01,2013-02-06 09:40:00,
2013-02-06 04:43:00,149.5,99.9,0.00,NNE,31,0.0,0.0,100,0.00,,SKC,0.00,VWS V14.01,2013-02-06 09:43:00,
2013-02-06 04:45:00,149.5,99.9,0.00,NNE,31,0.0,0.0,100,0.00,,SKC,0.00,VWS V14.01,2013-02-06 09:45:00,
2013-02-06 04:46:00,149.5,99.9,0.00,NNE,31,0.0,0.0,100,0.00,,SKC,0.00,VWS V14.01,2013-02-06 09:46:00,
2013-02-06 04:48:00,149.5,99.9,0.00,NNE,31,0.0,0.0,100,0.00,,SKC,0.00,VWS V14.01,2013-02-06 09:48:00,
2013-02-06 04:51:00,149.5,99.9,0.00,NNE,31,0.0,0.0,100,0.00,,SKC,0.00,VWS V14.01,2013-02-06 09:51:00,
2013-02-06 04:52:00,149.5,99.9,0.00,NNE,31,0.0,0.0,100,0.00,,SKC,0.00,VWS V14.01,2013-02-06 09:52:00,
2013-02-06 04:55:00,149.5,99.9,0.00,NNE,31,0.0,0.0,100,0.00,,SKC,0.00,VWS V14.01,2013-02-06 09:55:00,
2013-02-06 04:57:00,149.5,99.9,0.00,NNE,31,0.0,0.0,100,0.00,,SKC,0.00,VWS V14.01,2013-02-06 09:57:00,
2013-02-06 04:58:00,149.5,99.9,0.00,NNE,31,0.0,0.0,100,0.00,,SKC,0.00,VWS V14.01,2013-02-06 09:58:00,
2013-02-06 05:01:00,149.5,99.9,0.00,NNE,31,0.0,0.0,100,0.00,,SKC,0.00,VWS V14.01,2013-02-06 10:01:00,
2013-02-06 05:03:00,149.5,99.9,0.00,NNE,31,0.0,0.0,100,0.00,,SKC,0.00,VWS V14.01,2013-02-06 10:03:00,
2013-02-06 05:04:00,149.5,99.9,0.00,NNE,31,0.0,0.0,100,0.00,,SKC,0.00,VWS V14.01,2013-02-06 10:04:00,
2013-02-06 05:06:00,149.5,99.9,0.00,NNE,31,0.0,0.0,100,0.00,,SKC,0.00,VWS V14.01,2013-02-06 10:06:00,
2013-02-06 05:08:00,149.5,99.9,0.00,NNE,31,0.0,0.0,100,0.00,,SKC,0.00,VWS V14.01,2013-02-06 10:08:00,
2013-02-06 05:11:00,149.5,99.9,0.00,NNE,31,0.0,0.0,100,0.00,,SKC,0.00,VWS V14.01,2013-02-06 10:11:00,
2013-02-06 05:13:00,149.5,99.9,0.00,NNE,31,0.0,0.0,100,0.00,,SKC,0.00,VWS V14.01,2013-02-06 10:13:00,
2013-02-06 05:15:00,149.5,99.9,0.00,NNE,31,0.0,0.0,100,0.00,,SKC,0.00,VWS V14.01,2013-02-06 10:15:00,
2013-02-06 05:19:00,149.5,99.9,0.00,NNE,31,0.0,0.0,100,0.00,,SKC,0.00,VWS V14.01,2013-02-06 10:19:00,
2013-02-06 05:21:00,149.5,99.9,0.00,NNE,31,0.0,0.0,100,0.00,,SKC,0.00,VWS V14.01,2013-02-06 10:21:00,
2013-02-06 05:22:00,149.5,99.9,0.00,NNE,31,0.0,0.0,100,0.00,,SKC,0.00,VWS V14.01,2013-02-06 10:22:00,
2013-02-06 05:24:00,149.5,99.9,0.00,NNE,31,0.0,0.0,100,0.00,,SKC,0.00,VWS V14.01,2013-02-06 10:24:00,
2013-02-06 05:29:00,149.5,99.9,0.00,NNE,31,0.0,0.0,100,0.00,,SKC,0.00,VWS V14.01,2013-02-06 10:29:00,
2013-02-06 05:32:00,149.5,99.9,0.00,NNE,31,0.0,0.0,100,0.00,,SKC,0.00,VWS V14.01,2013-02-06 10:32:00,
2013-02-06 05:34:00,149.5,99.9,0.00,NNE,31,0.0,0.0,100,0.00,,SKC,0.00,VWS V14.01,2013-02-06 10:34:00,
2013-02-06 05:35:00,149.5,99.9,0.00,NNE,31,0.0,0.0,100,0.00,,SKC,0.00,VWS V14.01,2013-02-06 10:35:00,
2013-02-06 05:37:00,149.5,99.9,0.00,NNE,31,0.0,0.0,100,0.00,,SKC,0.00,VWS V14.01,2013-02-06 10:37:00,
2013-02-06 05:40:00,149.5,99.9,0.00,NNE,30,2.1,4.1,100,0.00,,SKC,0.00,VWS V14.01,2013-02-06 10:40:00,
2013-02-06 05:42:00,149.5,99.9,0.00,NNE,22,1.9,4.7,100,0.00,,SKC,0.00,VWS V14.01,2013-02-06 10:42:00,
2013-02-06 05:44:00,149.5,99.9,0.00,NE,41,1.1,2.7,100,0.00,,SKC,0.00,VWS V14.01,2013-02-06 10:44:00,
2013-02-06 05:46:00,149.5,99.9,0.00,NNE,24,0.0,0.0,100,0.00,,SKC,0.00,VWS V14.01,2013-02-06 10:46:00,
2013-02-06 05:47:00,149.5,99.9,0.00,NNE,24,0.0,0.0,100,0.00,,SKC,0.00,VWS V14.01,2013-02-06 10:47:00,
2013-02-06 05:50:00,149.5,99.9,0.00,NE,38,1.6,3.4,100,0.00,,SKC,0.00,VWS V14.01,2013-02-06 10:50:00,
2013-02-06 05:51:00,149.5,99.9,0.00,NE,38,1.8,2.3,100,0.00,,SKC,0.00,VWS V14.01,2013-02-06 10:51:00,
2013-02-06 05:52:00,149.5,99.9,0.00,NE,38,2.7,3.8,100,0.00,,SKC,0.00,VWS V14.01,2013-02-06 10:52:00,
2013-02-06 05:56:00,149.5,99.9,0.00,NE,35,0.0,1.3,100,0.00,,SKC,0.00,VWS V14.01,2013-02-06 10:56:00,
2013-02-06 05:58:00,149.5,99.9,0.00,NE,35,0.0,0.0,100,0.00,,SKC,0.00,VWS V14.01,2013-02-06 10:58:00,
2013-02-06 06:00:00,149.5,99.9,0.00,NE,35,0.0,0.0,100,0.00,,SKC,0.00,VWS V14.01,2013-02-06 11:00:00,
2013-02-06 06:02:00,149.5,99.9,0.00,NE,39,1.4,4.3,100,0.00,,SKC,0.00,VWS V14.01,2013-02-06 11:02:00,
2013-02-06 06:06:00,149.5,99.9,0.00,NE,45,2.5,4.7,100,0.00,,SKC,0.00,VWS V14.01,2013-02-06 11:06:00,
2013-02-06 06:08:00,149.5,99.9,0.00,NE,39,2.3,4.0,100,0.00,,SKC,0.00,VWS V14.01,2013-02-06 11:08:00,
2013-02-06 06:10:00,149.5,99.9,0.00,NE,34,3.0,3.4,100,0.00,,SKC,0.00,VWS V14.01,2013-02-06 11:10:00,
2013-02-06 06:15:00,149.5,99.9,0.00,NE,41,2.7,2.9,100,0.00,,SKC,0.00,VWS V14.01,2013-02-06 11:15:00,
2013-02-06 06:18:00,149.5,99.9,0.00,NE,41,0.0,1.0,100,0.00,,SKC,0.00,VWS V14.01,2013-02-06 11:18:00,
2013-02-06 06:20:00,149.5,99.9,0.00,NE,35,0.0,0.0,100,0.00,,SKC,0.00,VWS V14.01,2013-02-06 11:20:00,
2013-02-06 06:22:00,149.5,99.9,0.00,NE,44,1.9,2.1,100,0.00,,SKC,0.00,VWS V14.01,2013-02-06 11:22:00,
2013-02-06 06:25:00,149.5,99.9,0.00,NE,41,0.0,1.7,100,0.00,,SKC,0.00,VWS V14.01,2013-02-06 11:25:00,
2013-02-06 06:26:00,149.5,99.9,0.00,NE,41,0.0,0.0,100,0.00,,SKC,0.00,VWS V14.01,2013-02-06 11:26:00,
2013-02-06 06:29:00,149.5,99.9,0.00,NE,37,0.0,0.0,100,0.00,,SKC,0.00,VWS V14.01,2013-02-06 11:29:00,
2013-02-06 06:30:00,149.5,99.9,0.00,NE,37,0.0,0.0,100,0.00,,SKC,0.00,VWS V14.01,2013-02-06 11:30:00,
2013-02-06 06:33:00,149.5,99.9,0.00,NE,38,0.0,0.0,100,0.00,,SKC,0.00,VWS V14.01,2013-02-06 11:33:00,
2013-02-06 06:35:00,149.5,99.9,0.00,NE,38,2.5,3.4,100,0.00,,SKC,0.00,VWS V14.01,2013-02-06 11:35:00,
2013-02-06 06:38:00,149.5,99.9,0.00,NE,38,2.1,2.1,100,0.00,,SKC,0.00,VWS V14.01,2013-02-06 11:38:00,
2013-02-06 06:40:00,149.5,99.9,0.00,NNE,31,0.0,0.0,100,0.00,,SKC,0.00,VWS V14.01,2013-02-06 11:40:00,
2013-02-06 06:41:00,149.5,99.9,0.00,NNE,31,0.0,0.0,100,0.00,,SKC,0.00,VWS V14.01,2013-02-06 11:41:00,
2013-02-06 06:43:00,149.5,99.9,0.00,NE,45,0.0,1.4,100,0.00,,SKC,0.00,VWS V14.01,2013-02-06 11:43:00,
2013-02-06 06:46:00,149.5,99.9,0.00,NE,35,0.0,0.0,100,0.00,,SKC,0.00,VWS V14.01,2013-02-06 11:46:00,
2013-02-06 06:48:00,149.5,99.9,0.00,NE,35,0.0,0.0,100,0.00,,SKC,0.00,VWS V14.01,2013-02-06 11:48:00,
2013-02-06 06:51:00,149.5,99.9,0.00,NE,39,0.7,2.5,100,0.00,,SKC,0.00,VWS V14.01,2013-02-06 11:51:00,
2013-02-06 06:54:00,149.5,99.9,0.00,NNE,32,1.2,2.7,100,0.00,,SKC,0.00,VWS V14.01,2013-02-06 11:54:00,
2013-02-06 06:56:00,149.5,99.9,0.00,NNE,28,0.0,0.4,100,0.00,,SKC,0.00,VWS V14.01,2013-02-06 11:56:00,
2013-02-06 06:59:00,149.5,99.9,0.00,NNE,28,0.0,0.0,100,0.00,,SKC,0.00,VWS V14.01,2013-02-06 11:59:00,
2013-02-06 07:00:00,149.5,99.9,0.00,NNE,28,0.0,0.0,100,0.00,,SKC,0.00,VWS V14.01,2013-02-06 12:00:00,
2013-02-06 07:01:00,149.5,99.9,0.00,NNE,28,0.0,0.0,100,0.00,,SKC,0.00,VWS V14.01,2013-02-06 12:01:00,
2013-02-06 07:05:00,149.5,99.9,0.00,NE,35,0.0,1.0,100,0.00,,SKC,0.00,VWS V14.01,2013-02-06 12:05:00,
2013-02-06 07:06:00,149.5,99.9,0.00,NE,41,1.2,2.4,100,0.00,,SKC,0.00,VWS V14.01,2013-02-06 12:06:00,
2013-02-06 07:07:00,149.5,99.9,0.00,NE,42,0.0,1.9,100,0.00,,SKC,0.00,VWS V14.01,2013-02-06 12:07:00,
2013-02-06 07:11:00,149.5,99.9,0.00,NE,46,2.1,2.7,100,0.00,,SKC,0.00,VWS V14.01,2013-02-06 12:11:00,
2013-02-06 07:12:00,149.5,99.9,0.00,NE,34,1.3,3.2,100,0.00,,SKC,0.00,VWS V14.01,2013-02-06 12:12:00,
2013-02-06 07:13:00,149.5,99.9,0.00,NE,46,2.1,3.5,100,0.00,,SKC,0.00,VWS V14.01,2013-02-06 12:13:00,
2013-02-06 07:17:00,149.5,99.9,0.00,NNE,30,0.0,0.0,100,0.00,,SKC,0.00,VWS V14.01,2013-02-06 12:17:00,
2013-02-06 07:18:00,149.5,99.9,0.00,NE,45,2.1,2.2,100,0.00,,SKC,0.00,VWS V14.01,2013-02-06 12:18:00,
2013-02-06 07:20:00,149.5,99.9,0.00,NE,39,0.0,1.7,100,0.00,,SKC,0.00,VWS V14.01,2013-02-06 12:20:00,
2013-02-06 07:23:00,149.5,99.9,0.00,NE,39,0.0,0.0,100,0.00,,SKC,0.00,VWS V14.01,2013-02-06 12:23:00,
2013-02-06 07:25:00,149.5,99.9,0.00,NE,39,0.0,0.0,100,0.00,,SKC,0.00,VWS V14.01,2013-02-06 12:25:00,
2013-02-06 07:26:00,149.5,99.9,0.00,NE,39,0.0,0.0,100,0.00,,SKC,0.00,VWS V14.01,2013-02-06 12:26:00,
2013-02-06 07:28:00,149.5,99.9,0.00,NE,39,0.0,0.0,100,0.00,,SKC,0.00,VWS V14.01,2013-02-06 12:28:00,
2013-02-06 07:33:00,149.5,99.9,0.00,NNE,30,0.0,1.9,100,0.00,,SKC,0.00,VWS V14.01,2013-02-06 12:33:00,
2013-02-06 07:34:00,149.5,99.9,0.00,NNE,30,0.0,0.0,100,0.00,,SKC,0.00,VWS V14.01,2013-02-06 12:34:00,
2013-02-06 07:39:00,149.5,99.9,0.00,NNE,30,0.0,0.0,100,0.00,,SKC,0.00,VWS V14.01,2013-02-06 12:39:00,
2013-02-06 07:40:00,149.5,99.9,0.00,NNE,30,0.0,0.0,100,0.00,,SKC,0.00,VWS V14.01,2013-02-06 12:40:00,
2013-02-06 07:43:00,149.5,99.9,0.00,NNE,30,0.0,0.0,100,0.00,,SKC,0.00,VWS V14.01,2013-02-06 12:43:00,
2013-02-06 07:44:00,149.5,99.9,0.00,NNE,30,0.0,0.0,100,0.00,,SKC,0.00,VWS V14.01,2013-02-06 12:44:00,
2013-02-06 07:45:00,149.5,99.9,0.00,NNE,30,0.0,0.0,100,0.00,,SKC,0.00,VWS V14.01,2013-02-06 12:45:00,
2013-02-06 07:47:00,149.5,99.9,0.00,NNE,30,0.0,0.0,100,0.00,,SKC,0.00,VWS V14.01,2013-02-06 12:47:00,
2013-02-06 07:51:00,149.5,99.9,0.00,NNE,30,0.0,0.0,100,0.00,,SKC,0.00,VWS V14.01,2013-02-06 12:51:00,
2013-02-06 07:52:00,149.5,99.9,0.00,NNE,30,0.0,0.0,100,0.00,,SKC,0.00,VWS V14.01,2013-02-06 12:52:00,
2013-02-06 07:55:00,149.5,99.9,0.00,NNE,30,0.0,0.0,100,0.00,,SKC,0.00,VWS V14.01,2013-02-06 12:55:00,
2013-02-06 07:56:00,149.5,99.9,0.00,NNE,30,0.0,0.0,100,0.00,,SKC,0.00,VWS V14.01,2013-02-06 12:56:00,
2013-02-06 07:58:00,149.5,99.9,0.00,NE,45,1.2,1.9,100,0.00,,SKC,0.00,VWS V14.01,2013-02-06 12:58:00,
2013-02-06 07:59:00,149.5,99.9,0.00,NE,45,0.0,1.2,100,0.00,,SKC,0.00,VWS V14.01,2013-02-06 12:59:00,
2013-02-06 08:01:00,149.5,99.9,0.00,NNE,28,0.5,1.8,100,0.00,,SKC,0.00,VWS V14.01,2013-02-06 13:01:00,
2013-02-06 08:05:00,149.5,99.9,0.00,NE,35,0.0,2.0,100,0.00,,SKC,0.00,VWS V14.01,2013-02-06 13:05:00,
2013-02-06 08:06:00,149.5,99.9,0.00,NE,35,0.0,0.0,100,0.00,,SKC,0.00,VWS V14.01,2013-02-06 13:06:00,
2013-02-06 08:07:00,149.5,99.9,0.00,NE,35,0.0,0.0,100,0.00,,SKC,0.00,VWS V14.01,2013-02-06 13:07:00,
2013-02-06 08:11:00,149.5,99.9,0.00,NE,41,0.0,0.5,100,0.00,,SKC,0.00,VWS V14.01,2013-02-06 13:11:00,
2013-02-06 08:13:00,149.5,99.9,0.00,NE,34,0.0,1.0,100,0.00,,SKC,0.00,VWS V14.01,2013-02-06 13:13:00,
2013-02-06 08:16:00,149.5,99.9,0.00,NE,34,0.0,0.0,100,0.00,,SKC,0.00,VWS V14.01,2013-02-06 13:16:00,
2013-02-06 08:17:00,149.5,99.9,0.00,NE,55,1.0,4.2,100,0.00,,SKC,0.00,VWS V14.01,2013-02-06 13:17:00,
2013-02-06 08:21:00,149.5,99.9,0.00,East,89,0.0,1.1,100,0.00,,SKC,0.00,VWS V14.01,2013-02-06 13:21:00,
2013-02-06 08:25:00,149.5,99.9,0.00,East,97,0.0,2.2,100,0.00,,SKC,0.00,VWS V14.01,2013-02-06 13:25:00,
2013-02-06 08:26:00,149.5,99.9,0.00,ESE,115,1.2,2.5,100,0.00,,SKC,0.00,VWS V14.01,2013-02-06 13:26:00,
2013-02-06 08:27:00,149.5,99.9,0.00,ESE,103,0.0,1.2,100,0.00,,SKC,0.00,VWS V14.01,2013-02-06 13:27:00,
2013-02-06 08:33:00,149.5,99.9,0.00,ENE,69,0.0,0.0,100,0.00,,SKC,0.00,VWS V14.01,2013-02-06 13:33:00,
2013-02-06 08:34:00,149.5,99.9,0.00,ENE,69,0.0,0.0,100,0.00,,SKC,0.00,VWS V14.01,2013-02-06 13:34:00,
2013-02-06 08:35:00,149.5,99.9,0.00,ENE,69,0.0,0.0,100,0.00,,SKC,0.00,VWS V14.01,2013-02-06 13:35:00,
2013-02-06 08:39:00,149.5,99.9,0.00,ENE,69,0.0,0.0,100,0.00,,SKC,0.00,VWS V14.01,2013-02-06 13:39:00,
2013-02-06 08:40:00,149.5,99.9,0.00,ENE,69,0.0,0.0,100,0.00,,SKC,0.00,VWS V14.01,2013-02-06 13:40:00,
2013-02-06 08:42:00,149.5,99.9,0.00,ENE,69,0.0,0.0,100,0.00,,SKC,0.00,VWS V14.01,2013-02-06 13:42:00,
2013-02-06 08:45:00,149.5,99.9,0.00,ENE,69,0.0,0.0,100,0.00,,SKC,0.00,VWS V14.01,2013-02-06 13:45:00,
2013-02-06 08:46:00,149.5,99.9,0.00,ENE,69,0.0,0.0,100,0.00,,SKC,0.00,VWS V14.01,2013-02-06 13:46:00,
2013-02-06 08:48:00,149.5,99.9,0.00,ENE,69,0.0,0.0,100,0.00,,SKC,0.00,VWS V14.01,2013-02-06 13:48:00,
2013-02-06 08:50:00,149.5,99.9,0.00,ENE,69,0.0,0.0,100,0.00,,SKC,0.00,VWS V14.01,2013-02-06 13:50:00,
2013-02-06 08:52:00,149.5,99.9,0.00,ENE,69,0.0,0.0,100,0.00,,SKC,0.00,VWS V14.01,2013-02-06 13:52:00,
2013-02-06 08:56:00,149.5,99.9,0.00,ENE,69,0.0,0.0,100,0.00,,SKC,0.00,VWS V14.01,2013-02-06 13:56:00,
2013-02-06 08:58:00,149.5,99.9,0.00,ENE,69,0.0,0.0,100,0.00,,SKC,0.00,VWS V14.01,2013-02-06 13:58:00,
2013-02-06 08:59:00,149.5,99.9,0.00,ENE,69,0.0,0.0,100,0.00,,SKC,0.00,VWS V14.01,2013-02-06 13:59:00,
2013-02-06 09:00:00,149.5,99.9,0.00,ENE,69,0.0,0.0,100,0.00,,SKC,0.00,VWS V14.01,2013-02-06 14:00:00,
2013-02-06 09:04:00,149.5,99.9,0.00,ENE,69,0.0,0.0,100,0.00,,SKC,0.00,VWS V14.01,2013-02-06 14:04:00,
2013-02-06 09:05:00,149.5,99.9,0.00,ENE,69,0.0,0.0,100,0.00,,SKC,0.00,VWS V14.01,2013-02-06 14:05:00,
2013-02-06 09:06:00,149.5,99.9,0.00,ENE,69,0.0,0.0,100,0.00,,SKC,0.00,VWS V14.01,2013-02-06 14:06:00,
2013-02-06 09:11:00,149.5,99.9,0.00,ENE,69,0.0,0.0,100,0.00,,SKC,0.00,VWS V14.01,2013-02-06 14:11:00,
2013-02-06 09:12:00,149.5,99.9,0.00,ENE,69,0.0,0.0,100,0.00,,SKC,0.00,VWS V14.01,2013-02-06 14:12:00,
2013-02-06 09:14:00,149.5,99.9,0.00,ENE,69,0.0,0.0,100,0.00,,SKC,0.00,VWS V14.01,2013-02-06 14:14:00,
2013-02-06 09:15:00,149.5,99.9,0.00,ENE,69,0.0,0.0,100,0.00,,SKC,0.00,VWS V14.01,2013-02-06 14:15:00,
2013-02-06 09:20:00,149.5,99.9,0.00,NE,55,0.0,1.6,100,0.00,,SKC,0.00,VWS V14.01,2013-02-06 14:20:00,
2013-02-06 09:21:00,149.5,99.9,0.00,ENE,62,2.6,3.0,100,0.00,,SKC,0.00,VWS V14.01,2013-02-06 14:21:00,
2013-02-06 09:22:00,149.5,99.9,0.00,NE,46,0.5,2.6,100,0.00,,SKC,0.00,VWS V14.01,2013-02-06 14:22:00,
2013-02-06 09:24:00,149.5,99.9,0.00,NE,41,0.0,0.0,100,0.00,,SKC,0.00,VWS V14.01,2013-02-06 14:24:00,
2013-02-06 09:26:00,149.5,99.9,0.00,NE,48,0.0,0.9,100,0.00,,SKC,0.00,VWS V14.01,2013-02-06 14:26:00,
2013-02-06 09:28:00,149.5,99.9,0.00,NE,48,0.0,0.0,100,0.00,,SKC,0.00,VWS V14.01,2013-02-06 14:28:00,
2013-02-06 09:29:00,149.5,99.9,0.00,NE,48,0.0,0.0,100,0.00,,SKC,0.00,VWS V14.01,2013-02-06 14:29:00,
2013-02-06 09:30:00,149.5,99.9,0.00,NE,48,0.0,0.0,100,0.00,,SKC,0.00,VWS V14.01,2013-02-06 14:30:00,
2013-02-06 09:33:00,149.5,99.9,0.00,NE,48,0.0,0.0,100,0.00,,SKC,0.00,VWS V14.01,2013-02-06 14:33:00,
2013-02-06 09:35:00,149.5,99.9,0.00,NE,48,0.0,0.0,100,0.00,,SKC,0.00,VWS V14.01,2013-02-06 14:35:00,
2013-02-06 09:36:00,149.5,99.9,0.00,NE,48,0.0,0.0,100,0.00,,SKC,0.00,VWS V14.01,2013-02-06 14:36:00,
2013-02-06 09:37:00,149.5,99.9,0.00,NE,48,0.0,0.0,100,0.00,,SKC,0.00,VWS V14.01,2013-02-06 14:37:00,
2013-02-06 09:40:00,149.5,99.9,0.00,NE,48,0.0,0.0,100,0.00,,SKC,0.00,VWS V14.01,2013-02-06 14:40:00,
2013-02-06 09:43:00,149.5,99.9,0.00,NE,48,0.0,0.0,100,0.00,,SKC,0.00,VWS V14.01,2013-02-06 14:43:00,
2013-02-06 09:45:00,149.5,99.9,0.00,NE,48,0.0,0.0,100,0.00,,SKC,0.00,VWS V14.01,2013-02-06 14:45:00,
2013-02-06 09:48:00,149.5,99.9,0.00,NE,48,0.0,0.0,100,0.00,,SKC,0.00,VWS V14.01,2013-02-06 14:48:00,
2013-02-06 09:51:00,149.5,99.9,0.00,NE,48,0.0,0.0,100,0.00,,SKC,0.00,VWS V14.01,2013-02-06 14:51:00,
2013-02-06 09:52:00,149.5,99.9,0.00,NE,48,0.0,0.0,100,0.00,,SKC,0.00,VWS V14.01,2013-02-06 14:52:00,
2013-02-06 09:54:00,149.5,99.9,0.00,NE,48,0.0,0.0,100,0.00,,SKC,0.00,VWS V14.01,2013-02-06 14:54:00,
2013-02-06 09:57:00,149.5,99.9,0.00,NE,48,0.0,0.0,100,0.00,,SKC,0.00,VWS V14.01,2013-02-06 14:57:00,
2013-02-06 09:59:00,149.5,99.9,0.00,NE,48,0.0,0.0,100,0.00,,SKC,0.00,VWS V14.01,2013-02-06 14:59:00,
2013-02-06 10:00:00,149.5,99.9,0.00,NE,48,0.0,0.0,100,0.00,,SKC,0.00,VWS V14.01,2013-02-06 15:00:00,
2013-02-06 10:01:00,149.5,99.9,0.00,NE,48,0.0,0.0,100,0.00,,SKC,0.00,VWS V14.01,2013-02-06 15:01:00,
2013-02-06 10:06:00,149.5,99.9,0.00,SSE,159,0.0,0.9,100,0.00,,SKC,0.00,VWS V14.01,2013-02-06 15:06:00,
2013-02-06 10:07:00,149.5,99.9,0.00,South,173,4.0,4.0,100,0.00,,SKC,0.00,VWS V14.01,2013-02-06 15:07:00,
2013-02-06 10:10:00,149.5,99.9,0.00,South,190,5.1,6.4,100,0.00,,SKC,0.00,VWS V14.01,2013-02-06 15:10:00,
2013-02-06 10:11:00,149.5,99.9,0.00,ESE,121,5.3,5.8,100,0.00,,SKC,0.00,VWS V14.01,2013-02-06 15:11:00,
2013-02-06 10:15:00,149.5,99.9,0.00,SE,129,7.3,8.0,100,0.00,,SKC,0.00,VWS V14.01,2013-02-06 15:15:00,
2013-02-06 10:16:00,149.5,99.9,0.00,SE,134,1.1,7.3,100,0.00,,SKC,0.00,VWS V14.01,2013-02-06 15:16:00,
2013-02-06 10:20:00,149.5,99.9,0.00,ESE,108,1.9,5.5,100,0.00,,SKC,0.00,VWS V14.01,2013-02-06 15:20:00,
2013-02-06 10:22:00,149.5,99.9,0.00,SSE,166,2.8,5.0,100,0.00,,SKC,0.00,VWS V14.01,2013-02-06 15:22:00,
2013-02-06 10:24:00,149.5,99.9,0.00,ESE,120,3.5,8.5,100,0.00,,SKC,0.00,VWS V14.01,2013-02-06 15:24:00,
2013-02-06 10:26:00,149.5,99.9,0.00,SE,146,5.7,5.7,100,0.00,,SKC,0.00,VWS V14.01,2013-02-06 15:26:00,
2013-02-06 10:27:00,149.5,99.9,0.00,South,170,3.2,9.3,100,0.00,,SKC,0.00,VWS V14.01,2013-02-06 15:27:00,
2013-02-06 10:30:00,149.5,99.9,0.00,SE,128,4.7,7.6,100,0.00,,SKC,0.00,VWS V14.01,2013-02-06 15:30:00,
2013-02-06 10:33:00,149.5,99.9,0.00,ESE,110,1.6,6.3,100,0.00,,SKC,0.00,VWS V14.01,2013-02-06 15:33:00,
2013-02-06 10:36:00,149.5,99.9,0.00,SE,124,7.5,7.5,100,0.00,,SKC,0.00,VWS V14.01,2013-02-06 15:36:00,
2013-02-06 10:39:00,149.5,99.9,0.00,SSE,158,2.9,8.7,100,0.00,,SKC,0.00,VWS V14.01,2013-02-06 15:39:00,
2013-02-06 10:40:00,149.5,99.9,0.00,SE,142,4.7,5.4,100,0.00,,SKC,0.00,VWS V14.01,2013-02-06 15:40:00,
2013-02-06 10:44:00,149.5,99.9,0.00,SSE,156,7.8,8.9,100,0.00,,SKC,0.00,VWS V14.01,2013-02-06 15:44:00,
2013-02-06 10:45:00,149.5,99.9,0.00,SE,145,3.0,9.6,100,0.00,,SKC,0.00,VWS V14.01,2013-02-06 15:45:00,
2013-02-06 10:46:00,149.5,99.9,0.00,SSE,150,1.7,5.5,100,0.00,,SKC,0.00,VWS V14.01,2013-02-06 15:46:00,
2013-02-06 10:50:00,149.5,99.9,0.00,SSW,210,1.6,7.3,100,0.00,,SKC,0.00,VWS V14.01,2013-02-06 15:50:00,
2013-02-06 10:51:00,149.5,99.9,0.00,SSE,156,6.1,8.0,100,0.00,,SKC,0.00,VWS V14.01,2013-02-06 15:51:00,
2013-02-06 10:52:00,149.5,99.9,0.00,SSE,156,6.8,9.6,100,0.00,,SKC,0.00,VWS V14.01,2013-02-06 15:52:00,
2013-02-06 10:57:00,149.5,99.9,0.00,SE,132,6.6,8.3,100,0.00,,SKC,0.00,VWS V14.01,2013-02-06 15:57:00,
2013-02-06 10:58:00,149.5,99.9,0.00,SSE,152,5.3,6.6,100,0.00,,SKC,0.00,VWS V14.01,2013-02-06 15:58:00,
2013-02-06 11:00:00,149.5,99.9,0.00,SSE,165,3.5,6.4,100,0.00,,SKC,0.00,VWS V14.01,2013-02-06 16:00:00,
2013-02-06 11:01:00,149.5,99.9,0.00,SE,142,3.8,7.1,100,0.00,,SKC,0.00,VWS V14.01,2013-02-06 16:01:00,
2013-02-06 11:03:00,149.5,99.9,0.00,South,169,4.5,7.5,100,0.00,,SKC,0.00,VWS V14.01,2013-02-06 16:03:00,
2013-02-06 11:06:00,149.5,99.9,0.00,SE,146,3.1,5.7,100,0.00,,SKC,0.00,VWS V14.01,2013-02-06 16:06:00,
2013-02-06 11:08:00,149.5,99.9,0.00,SE,134,6.8,8.6,100,0.00,,SKC,0.00,VWS V14.01,2013-02-06 16:08:00,
2013-02-06 11:09:00,149.5,99.9,0.00,SE,143,1.9,8.6,100,0.00,,SKC,0.00,VWS V14.01,2013-02-06 16:09:00,
2013-02-06 11:14:00,149.5,99.9,0.00,SE,125,4.1,7.2,100,0.00,,SKC,0.00,VWS V14.01,2013-02-06 16:14:00,
2013-02-06 11:16:00,149.5,99.9,0.00,East,97,3.7,5.4,100,0.00,,SKC,0.00,VWS V14.01,2013-02-06 16:16:00,
2013-02-06 11:17:00,149.5,99.9,0.00,SE,138,0.0,4.3,100,0.00,,SKC,0.00,VWS V14.01,2013-02-06 16:17:00,
2013-02-06 11:20:00,149.5,99.9,0.00,SSW,198,5.1,6.4,100,0.00,,SKC,0.00,VWS V14.01,2013-02-06 16:20:00,
2013-02-06 11:22:00,149.5,99.9,0.00,ESE,120,0.0,4.7,100,0.00,,SKC,0.00,VWS V14.01,2013-02-06 16:22:00,
2013-02-06 11:24:00,149.5,99.9,0.00,SE,143,4.4,8.6,100,0.00,,SKC,0.00,VWS V14.01,2013-02-06 16:24:00,
2013-02-06 11:27:00,149.5,99.9,0.00,SE,124,2.1,6.3,100,0.00,,SKC,0.00,VWS V14.01,2013-02-06 16:27:00,
2013-02-06 11:28:00,149.5,99.9,0.00,SE,125,3.0,3.6,100,0.00,,SKC,0.00,VWS V14.01,2013-02-06 16:28:00,
2013-02-06 11:32:00,149.5,99.9,0.00,NNE,30,0.8,4.6,100,0.00,,SKC,0.00,VWS V14.01,2013-02-06 16:32:00,
2013-02-06 11:34:00,149.5,99.9,0.00,SSE,159,2.9,9.6,100,0.00,,SKC,0.00,VWS V14.01,2013-02-06 16:34:00,
2013-02-06 11:35:00,149.5,99.9,0.00,SE,124,4.1,7.8,100,0.00,,SKC,0.00,VWS V14.01,2013-02-06 16:35:00,
2013-02-06 11:39:00,149.5,99.9,0.00,South,174,3.9,3.9,100,0.00,,SKC,0.00,VWS V14.01,2013-02-06 16:39:00,
2013-02-06 11:40:00,149.5,99.9,0.00,SE,145,3.4,4.2,100,0.00,,SKC,0.00,VWS V14.01,2013-02-06 16:40:00,
2013-02-06 11:41:00,149.5,99.9,0.00,SE,143,4.9,8.1,100,0.00,,SKC,0.00,VWS V14.01,2013-02-06 16:41:00,
2013-02-06 11:45:00,149.5,99.9,0.00,South,186,4.5,7.6,100,0.00,,SKC,0.00,VWS V14.01,2013-02-06 16:45:00,
2013-02-06 11:46:00,149.5,99.9,0.00,SSE,149,2.8,8.5,100,0.00,,SKC,0.00,VWS V14.01,2013-02-06 16:46:00,
2013-02-06 11:48:00,149.5,99.9,0.00,South,173,4.1,9.6,100,0.00,,SKC,0.00,VWS V14.01,2013-02-06 16:48:00,
2013-02-06 11:51:00,149.5,99.9,0.00,South,186,3.9,7.8,100,0.00,,SKC,0.00,VWS V14.01,2013-02-06 16:51:00,
2013-02-06 11:52:00,149.5,99.9,0.00,SE,124,3.2,7.1,100,0.00,,SKC,0.00,VWS V14.01,2013-02-06 16:52:00,
2013-02-06 11:53:00,149.5,99.9,0.00,South,173,3.7,6.2,100,0.00,,SKC,0.00,VWS V14.01,2013-02-06 16:53:00,
2013-02-06 11:56:00,149.5,99.9,0.00,ESE,108,5.8,7.4,100,0.00,,SKC,0.00,VWS V14.01,2013-02-06 16:56:00,
2013-02-06 11:58:00,149.5,99.9,0.00,SSE,150,2.5,9.4,100,0.00,,SKC,0.00,VWS V14.01,2013-02-06 16:58:00,
2013-02-06 12:00:00,149.5,99.9,0.00,SE,127,6.3,8.9,100,0.00,,SKC,0.00,VWS V14.01,2013-02-06 17:00:00,
2013-02-06 12:02:00,149.5,99.9,0.00,South,181,4.9,7.3,100,0.00,,SKC,0.00,VWS V14.01,2013-02-06 17:02:00,
2013-02-06 12:03:00,149.5,99.9,0.00,SE,132,5.4,7.3,100,0.00,,SKC,0.00,VWS V14.01,2013-02-06 17:03:00,
2013-02-06 12:08:00,149.5,99.9,0.00,SSE,150,1.6,6.2,100,0.00,,SKC,0.00,VWS V14.01,2013-02-06 17:08:00,
2013-02-06 12:10:00,149.5,99.9,0.00,SSE,167,2.9,4.0,100,0.00,,SKC,0.00,VWS V14.01,2013-02-06 17:10:00,
2013-02-06 12:12:00,149.5,99.9,0.00,South,181,4.1,6.3,100,0.00,,SKC,0.00,VWS V14.01,2013-02-06 17:12:00,
2013-02-06 12:16:00,149.5,99.9,0.00,ESE,111,4.5,7.8,100,0.00,,SKC,0.00,VWS V14.01,2013-02-06 17:16:00,
2013-02-06 12:18:00,149.5,99.9,0.00,SE,143,4.0,10.0,100,0.00,,SKC,0.00,VWS V14.01,2013-02-06 17:18:00,
2013-02-06 12:19:00,149.5,99.9,0.00,SSE,156,4.0,8.9,100,0.00,,SKC,0.00,VWS V14.01,2013-02-06 17:19:00,
2013-02-06 12:22:00,149.5,99.9,0.00,South,179,3.5,7.6,100,0.00,,SKC,0.00,VWS V14.01,2013-02-06 17:22:00,
2013-02-06 12:25:00,149.5,99.9,0.00,SSE,158,7.3,9.4,100,0.00,,SKC,0.00,VWS V14.01,2013-02-06 17:25:00,
2013-02-06 12:28:00,149.5,99.9,0.00,ESE,120,2.7,8.7,100,0.00,,SKC,0.00,VWS V14.01,2013-02-06 17:28:00,
2013-02-06 12:30:00,149.5,99.9,0.00,South,169,7.3,8.6,100,0.00,,SKC,0.00,VWS V14.01,2013-02-06 17:30:00,
2013-02-06 12:32:00,149.5,99.9,0.00,SSW,198,6.8,8.9,100,0.00,,SKC,0.00,VWS V14.01,2013-02-06 17:32:00,
2013-02-06 12:35:00,149.5,99.9,0.00,SSE,165,3.5,6.5,100,0.00,,SKC,0.00,VWS V14.01,2013-02-06 17:35:00,
2013-02-06 12:36:00,149.5,99.9,0.00,SSE,167,1.9,3.9,100,0.00,,SKC,0.00,VWS V14.01,2013-02-06 17:36:00,
2013-02-06 12:41:00,149.5,99.9,0.00,SSW,208,1.4,4.4,100,0.00,,SKC,0.00,VWS V14.01,2013-02-06 17:41:00,
2013-02-06 12:42:00,149.5,99.9,0.00,WSW,242,2.5,4.6,100,0.00,,SKC,0.00,VWS V14.01,2013-02-06 17:42:00,
2013-02-06 12:45:00,149.5,99.9,0.00,SSE,159,6.0,6.0,100,0.00,,SKC,0.00,VWS V14.01,2013-02-06 17:45:00,
2013-02-06 12:47:00,149.5,99.9,0.00,SW,231,6.1,6.6,100,0.00,,SKC,0.00,VWS V14.01,2013-02-06 17:47:00,
2013-02-06 12:48:00,149.5,99.9,0.00,SE,136,1.6,6.1,100,0.00,,SKC,0.00,VWS V14.01,2013-02-06 17:48:00,
2013-02-06 12:50:00,149.5,99.9,0.00,SSW,195,1.6,5.3,100,0.00,,SKC,0.00,VWS V14.01,2013-02-06 17:50:00,
2013-02-06 12:54:00,149.5,99.9,0.00,SW,221,4.5,8.0,100,0.00,,SKC,0.00,VWS V14.01,2013-02-06 17:54:00,
2013-02-06 12:55:00,149.5,99.9,0.00,South,184,4.1,6.7,100,0.00,,SKC,0.00,VWS V14.01,2013-02-06 17:55:00,
2013-02-06 12:56:00,149.5,99.9,0.00,SW,226,6.5,9.1,100,0.00,,SKC,0.00,VWS V14.01,2013-02-06 17:56:00,
2013-02-06 13:00:00,149.5,99.9,0.00,SSW,202,6.5,6.5,100,0.00,,SKC,0.00,VWS V14.01,2013-02-06 18:00:00,
2013-02-06 13:02:00,149.5,99.9,0.00,SSW,211,5.3,8.1,100,0.00,,SKC,0.00,VWS V14.01,2013-02-06 18:02:00,
2013-02-06 13:03:00,149.5,99.9,0.00,SSW,193,7.6,9.2,100,0.00,,SKC,0.00,VWS V14.01,2013-02-06 18:03:00,
2013-02-06 13:04:00,149.5,99.9,0.00,SW,233,6.5,8.0,100,0.00,,SKC,0.00,VWS V14.01,2013-02-06 18:04:00,
2013-02-06 13:06:00,149.5,99.9,0.00,SW,225,5.4,8.1,100,0.00,,SKC,0.00,VWS V14.01,2013-02-06 18:06:00,
2013-02-06 13:09:00,149.5,99.9,0.00,SW,231,6.2,8.5,100,0.00,,SKC,0.00,VWS V14.01,2013-02-06 18:09:00,
2013-02-06 13:10:00,149.5,99.9,0.00,SSW,205,7.5,7.5,100,0.00,,SKC,0.00,VWS V14.01,2013-02-06 18:10:00,
2013-02-06 13:12:00,149.5,99.9,0.00,SW,225,7.1,8.6,100,0.00,,SKC,0.00,VWS V14.01,2013-02-06 18:12:00,
2013-02-06 13:14:00,149.5,99.9,0.00,South,176,10.3,10.4,100,0.00,,SKC,0.00,VWS V14.01,2013-02-06 18:14:00,
2013-02-06 13:16:00,149.5,99.9,0.00,South,188,7.5,10.9,100,0.00,,SKC,0.00,VWS V14.01,2013-02-06 18:16:00,
2013-02-06 13:17:00,149.5,99.9,0.00,SSW,202,9.8,10.1,100,0.00,,SKC,0.00,VWS V14.01,2013-02-06 18:17:00,
2013-02-06 13:19:00,149.5,99.9,0.00,SW,222,7.6,9.6,100,0.00,,SKC,0.00,VWS V14.01,2013-02-06 18:19:00,
2013-02-06 13:20:00,149.5,99.9,0.00,SSW,194,9.4,11.7,100,0.00,,SKC,0.00,VWS V14.01,2013-02-06 18:20:00,
2013-02-06 13:22:00,149.5,99.9,0.00,South,172,5.0,7.7,100,0.00,,SKC,0.00,VWS V14.01,2013-02-06 18:22:00,
2013-02-06 13:25:00,149.5,99.9,0.00,SW,222,6.8,7.7,100,0.00,,SKC,0.00,VWS V14.01,2013-02-06 18:25:00,
2013-02-06 13:26:00,149.5,99.9,0.00,SW,231,3.4,7.0,100,0.00,,SKC,0.00,VWS V14.01,2013-02-06 18:26:00,
2013-02-06 13:30:00,149.5,99.9,0.00,SSE,153,3.6,6.2,100,0.00,,SKC,0.00,VWS V14.01,2013-02-06 18:30:00,
2013-02-06 13:32:00,149.5,99.9,0.00,SE,131,5.0,8.9,100,0.00,,SKC,0.00,VWS V14.01,2013-02-06 18:32:00,
2013-02-06 13:33:00,149.5,99.9,0.00,SSW,194,5.4,8.1,100,0.00,,SKC,0.00,VWS V14.01,2013-02-06 18:33:00,
2013-02-06 13:38:00,149.5,99.9,0.00,SSE,166,9.3,9.3,100,0.00,,SKC,0.00,VWS V14.01,2013-02-06 18:38:00,
2013-02-06 13:39:00,149.5,99.9,0.00,SE,142,6.2,11.6,100,0.00,,SKC,0.00,VWS V14.01,2013-02-06 18:39:00,
2013-02-06 13:43:00,149.5,99.9,0.00,SW,217,3.4,8.9,100,0.00,,SKC,0.00,VWS V14.01,2013-02-06 18:43:00,
2013-02-06 13:47:00,149.5,99.9,0.00,SSE,150,5.6,9.8,100,0.00,,SKC,0.00,VWS V14.01,2013-02-06 18:47:00,
2013-02-06 13:48:00,149.5,99.9,0.00,SSE,153,5.0,12.7,100,0.00,,SKC,0.00,VWS V14.01,2013-02-06 18:48:00,
2013-02-06 13:53:00,149.5,99.9,0.00,SW,221,5.0,8.2,100,0.00,,SKC,0.00,VWS V14.01,2013-02-06 18:53:00,
2013-02-06 13:54:00,149.5,99.9,0.00,SE,143,4.0,9.1,100,0.00,,SKC,0.00,VWS V14.01,2013-02-06 18:54:00,
2013-02-06 13:56:00,149.5,99.9,0.00,South,176,2.4,4.7,100,0.00,,SKC,0.00,VWS V14.01,2013-02-06 18:56:00,
2013-02-06 14:00:00,149.5,99.9,0.00,SSE,152,3.4,7.8,100,0.00,,SKC,0.00,VWS V14.01,2013-02-06 19:00:00,
2013-02-06 14:01:00,149.5,99.9,0.00,SE,125,4.3,4.9,100,0.00,,SKC,0.00,VWS V14.01,2013-02-06 19:01:00,
2013-02-06 14:02:00,149.5,99.9,0.00,SSE,162,4.9,9.2,100,0.00,,SKC,0.00,VWS V14.01,2013-02-06 19:02:00,
2013-02-06 14:06:00,149.5,99.9,0.00,SSE,159,4.0,8.8,100,0.00,,SKC,0.00,VWS V14.01,2013-02-06 19:06:00,
2013-02-06 14:07:00,149.5,99.9,0.00,SW,214,3.2,7.3,100,0.00,,SKC,0.00,VWS V14.01,2013-02-06 19:07:00,
2013-02-06 14:08:00,149.5,99.9,0.00,South,183,5.6,7.1,100,0.00,,SKC,0.00,VWS V14.01,2013-02-06 19:08:00,
2013-02-06 14:10:00,149.5,99.9,0.00,South,184,4.2,8.8,100,0.00,,SKC,0.00,VWS V14.01,2013-02-06 19:10:00,
2013-02-06 14:12:00,149.5,99.9,0.00,South,173,6.3,8.6,100,0.00,,SKC,0.00,VWS V14.01,2013-02-06 19:12:00,
2013-02-06 14:13:00,149.5,99.9,0.00,SE,146,9.8,10.6,100,0.00,,SKC,0.00,VWS V14.01,2013-02-06 19:13:00,
2013-02-06 14:15:00,149.5,99.9,0.00,SSE,160,5.0,12.7,100,0.00,,SKC,0.00,VWS V14.01,2013-02-06 19:15:00,
2013-02-06 14:19:00,149.5,99.9,0.00,SW,222,4.6,8.0,100,0.00,,SKC,0.00,VWS V14.01,2013-02-06 19:19:00,
2013-02-06 14:20:00,149.5,99.9,0.00,SSE,149,6.1,8.9,100,0.00,,SKC,0.00,VWS V14.01,2013-02-06 19:20:00,
2013-02-06 14:21:00,149.5,99.9,0.00,South,183,10.3,10.3,100,0.00,,SKC,0.00,VWS V14.01,2013-02-06 19:21:00,
2013-02-06 14:25:00,149.5,99.9,0.00,South,173,3.0,4.8,100,0.00,,SKC,0.00,VWS V14.01,2013-02-06 19:25:00,
2013-02-06 14:26:00,149.5,99.9,0.00,SSW,205,4.7,11.1,100,0.00,,SKC,0.00,VWS V14.01,2013-02-06 19:26:00,
2013-02-06 14:27:00,149.5,99.9,0.00,South,187,5.5,8.7,100,0.00,,SKC,0.00,VWS V14.01,2013-02-06 19:27:00,
2013-02-06 14:30:00,149.5,99.9,0.00,South,183,5.0,6.0,100,0.00,,SKC,0.00,VWS V14.01,2013-02-06 19:30:00,
2013-02-06 14:33:00,149.5,99.9,0.00,SE,125,4.1,9.6,100,0.00,,SKC,0.00,VWS V14.01,2013-02-06 19:33:00,
2013-02-06 14:35:00,149.5,99.9,0.00,SE,127,10.3,10.3,100,0.00,,SKC,0.00,VWS V14.01,2013-02-06 19:35:00,
2013-02-06 14:41:00,149.5,99.9,0.00,SE,139,6.2,6.5,100,0.00,,SKC,0.00,VWS V14.01,2013-02-06 19:41:00,
2013-02-06 14:42:00,149.5,99.9,0.00,SSW,202,2.6,7.9,100,0.00,,SKC,0.00,VWS V14.01,2013-02-06 19:42:00,
2013-02-06 14:44:00,149.5,99.9,0.00,SE,146,3.2,7.1,100,0.00,,SKC,0.00,VWS V14.01,2013-02-06 19:44:00,
2013-02-06 14:45:00,149.5,99.9,0.00,SSE,167,7.2,9.7,100,0.00,,SKC,0.00,VWS V14.01,2013-02-06 19:45:00,
2013-02-06 14:47:00,149.5,99.9,0.00,East,90,3.7,6.8,100,0.00,,SKC,0.00,VWS V14.01,2013-02-06 19:47:00,
2013-02-06 14:49:00,149.5,99.9,0.00,SE,132,6.0,9.9,100,0.00,,SKC,0.00,VWS V14.01,2013-02-06 19:49:00,
2013-02-06 14:52:00,149.5,99.9,0.00,SSW,201,3.6,5.0,100,0.00,,SKC,0.00,VWS V14.01,2013-02-06 19:52:00,
2013-02-06 14:55:00,149.5,99.9,0.00,SSW,202,4.9,9.6,100,0.00,,SKC,0.00,VWS V14.01,2013-02-06 19:55:00,
2013-02-06 14:57:00,149.5,99.9,0.00,SE,139,7.9,11.1,100,0.00,,SKC,0.00,VWS V14.01,2013-02-06 19:57:00,
2013-02-06 14:58:00,149.5,99.9,0.00,SE,136,9.1,9.4,100,0.00,,SKC,0.00,VWS V14.01,2013-02-06 19:58:00,
2013-02-06 15:00:00,149.5,99.9,0.00,SSW,197,7.8,8.3,100,0.00,,SKC,0.00,VWS V14.01,2013-02-06 20:00:00,
2013-02-06 15:01:00,149.5,99.9,0.00,South,183,6.1,8.7,100,0.00,,SKC,0.00,VWS V14.01,2013-02-06 20:01:00,
2013-02-06 15:05:00,149.5,99.9,0.00,SE,129,6.8,9.8,100,0.00,,SKC,0.00,VWS V14.01,2013-02-06 20:05:00,
2013-02-06 15:07:00,149.5,99.9,0.00,SSE,150,5.7,10.4,100,0.00,,SKC,0.00,VWS V14.01,2013-02-06 20:07:00,
2013-02-06 15:08:00,149.5,99.9,0.00,South,184,2.3,8.6,100,0.00,,SKC,0.00,VWS V14.01,2013-02-06 20:08:00,
2013-02-06 15:10:00,149.5,99.9,0.00,SSW,207,5.2,8.8,100,0.00,,SKC,0.00,VWS V14.01,2013-02-06 20:10:00,
2013-02-06 15:13:00,149.5,99.9,0.00,ESE,120,5.7,9.3,100,0.00,,SKC,0.00,VWS V14.01,2013-02-06 20:13:00,
2013-02-06 15:14:00,149.5,99.9,0.00,SSE,155,6.2,8.9,100,0.00,,SKC,0.00,VWS V14.01,2013-02-06 20:14:00,
2013-02-06 15:15:00,149.5,99.9,0.00,SSE,150,7.3,10.0,100,0.00,,SKC,0.00,VWS V14.01,2013-02-06 20:15:00,
2013-02-06 15:16:00,149.5,99.9,0.00,SSE,162,7.0,12.0,100,0.00,,SKC,0.00,VWS V14.01,2013-02-06 20:16:00,
2013-02-06 15:21:00,149.5,99.9,0.00,South,169,6.8,10.1,100,0.00,,SKC,0.00,VWS V14.01,2013-02-06 20:21:00,
2013-02-06 15:22:00,149.5,99.9,0.00,SE,143,3.9,8.3,100,0.00,,SKC,0.00,VWS V14.01,2013-02-06 20:22:00,
2013-02-06 15:25:00,149.5,99.9,0.00,South,173,6.5,6.5,100,0.00,,SKC,0.00,VWS V14.01,2013-02-06 20:25:00,
2013-02-06 15:27:00,149.5,99.9,0.00,SSE,165,6.5,8.0,100,0.00,,SKC,0.00,VWS V14.01,2013-02-06 20:27:00,
2013-02-06 15:28:00,149.5,99.9,0.00,SE,146,5.8,9.7,100,0.00,,SKC,0.00,VWS V14.01,2013-02-06 20:28:00,
2013-02-06 15:29:00,149.5,99.9,0.00,SSW,198,3.1,6.0,100,0.00,,SKC,0.00,VWS V14.01,2013-02-06 20:29:00,
2013-02-06 15:30:00,149.5,99.9,0.00,South,180,2.1,9.5,100,0.00,,SKC,0.00,VWS V14.01,2013-02-06 20:30:00,
2013-02-06 15:34:00,149.5,99.9,0.00,SE,143,3.5,14.0,100,0.00,,SKC,0.00,VWS V14.01,2013-02-06 20:34:00,
2013-02-06 15:35:00,149.5,99.9,0.00,SE,145,4.8,9.1,100,0.00,,SKC,0.00,VWS V14.01,2013-02-06 20:35:00,
2013-02-06 15:39:00,149.5,99.9,0.00,SSE,166,5.1,11.1,100,0.00,,SKC,0.00,VWS V14.01,2013-02-06 20:39:00,
2013-02-06 15:40:00,149.5,99.9,0.00,SSE,155,7.9,11.5,100,0.00,,SKC,0.00,VWS V14.01,2013-02-06 20:40:00,
2013-02-06 15:42:00,149.5,99.9,0.00,ESE,121,7.7,13.0,100,0.00,,SKC,0.00,VWS V14.01,2013-02-06 20:42:00,
2013-02-06 15:44:00,149.5,99.9,0.00,South,190,4.8,7.7,100,0.00,,SKC,0.00,VWS V14.01,2013-02-06 20:44:00,
2013-02-06 15:47:00,149.5,99.9,0.00,South,173,5.2,10.7,100,0.00,,SKC,0.00,VWS V14.01,2013-02-06 20:47:00,
2013-02-06 15:50:00,149.5,99.9,0.00,SSE,155,4.0,8.8,100,0.00,,SKC,0.00,VWS V14.01,2013-02-06 20:50:00,
2013-02-06 15:52:00,149.5,99.9,0.00,South,187,9.0,11.2,100,0.00,,SKC,0.00,VWS V14.01,2013-02-06 20:52:00,
2013-02-06 15:53:00,149.5,99.9,0.00,SE,124,9.3,11.0,100,0.00,,SKC,0.00,VWS V14.01,2013-02-06 20:53:00,
2013-02-06 15:54:00,149.5,99.9,0.00,SSE,153,6.0,12.4,100,0.00,,SKC,0.00,VWS V14.01,2013-02-06 20:54:00,
2013-02-06 15:57:00,149.5,99.9,0.00,East,83,2.4,15.0,100,0.00,,SKC,0.00,VWS V14.01,2013-02-06 20:57:00,
2013-02-06 15:58:00,149.5,99.9,0.00,SE,143,2.5,9.4,100,0.00,,SKC,0.00,VWS V14.01,2013-02-06 20:58:00,
2013-02-06 16:02:00,149.5,99.9,0.00,SW,222,4.2,13.0,100,0.00,,SKC,0.00,VWS V14.01,2013-02-06 21:02:00,
2013-02-06 16:05:00,149.5,99.9,0.00,SE,142,9.4,10.4,100,0.00,,SKC,0.00,VWS V14.01,2013-02-06 21:05:00,
2013-02-06 16:06:00,149.5,99.9,0.00,South,190,5.1,10.1,100,0.00,,SKC,0.00,VWS V14.01,2013-02-06 21:06:00,
2013-02-06 16:09:00,149.5,99.9,0.00,South,173,5.8,7.5,100,0.00,,SKC,0.00,VWS V14.01,2013-02-06 21:09:00,
2013-02-06 16:10:00,149.5,99.9,0.00,SE,131,7.6,7.6,100,0.00,,SKC,0.00,VWS V14.01,2013-02-06 21:10:00,
2013-02-06 16:12:00,149.5,99.9,0.00,SSW,204,7.2,10.7,100,0.00,,SKC,0.00,VWS V14.01,2013-02-06 21:12:00,
2013-02-06 16:15:00,149.5,99.9,0.00,SSE,158,9.4,11.2,100,0.00,,SKC,0.00,VWS V14.01,2013-02-06 21:15:00,
2013-02-06 16:17:00,149.5,99.9,0.00,SSE,162,7.7,13.2,100,0.00,,SKC,0.00,VWS V14.01,2013-02-06 21:17:00,
2013-02-06 16:18:00,149.5,99.9,0.00,SSE,162,3.5,10.5,100,0.00,,SKC,0.00,VWS V14.01,2013-02-06 21:18:00,
2013-02-06 16:22:00,149.5,99.9,0.00,South,172,6.0,9.6,100,0.00,,SKC,0.00,VWS V14.01,2013-02-06 21:22:00,
2013-02-06 16:24:00,149.5,99.9,0.00,SE,142,6.5,11.4,100,0.00,,SKC,0.00,VWS V14.01,2013-02-06 21:24:00,
2013-02-06 16:26:00,149.5,99.9,0.00,SSE,165,6.2,9.3,100,0.00,,SKC,0.00,VWS V14.01,2013-02-06 21:26:00,
2013-02-06 16:29:00,149.5,99.9,0.00,SE,134,6.3,11.3,100,0.00,,SKC,0.00,VWS V14.01,2013-02-06 21:29:00,
2013-02-06 16:30:00,149.5,99.9,0.00,SSE,160,6.2,10.7,100,0.00,,SKC,0.00,VWS V14.01,2013-02-06 21:30:00,
2013-02-06 16:35:00,149.5,99.9,0.00,South,187,9.8,10.9,100,0.00,,SKC,0.00,VWS V14.01,2013-02-06 21:35:00,
2013-02-06 16:37:00,149.5,99.9,0.00,ESE,122,2.7,9.6,100,0.00,,SKC,0.00,VWS V14.01,2013-02-06 21:37:00,
2013-02-06 16:38:00,149.5,99.9,0.00,SE,138,9.4,11.9,100,0.00,,SKC,0.00,VWS V14.01,2013-02-06 21:38:00,
2013-02-06 16:40:00,149.5,99.9,0.00,SSE,165,5.0,10.4,100,0.00,,SKC,0.00,VWS V14.01,2013-02-06 21:40:00,
2013-02-06 16:43:00,149.5,99.9,0.00,SSE,159,7.0,10.1,100,0.00,,SKC,0.00,VWS V14.01,2013-02-06 21:43:00,
2013-02-06 16:45:00,149.5,99.9,0.00,South,191,6.1,11.2,100,0.00,,SKC,0.00,VWS V14.01,2013-02-06 21:45:00,
2013-02-06 16:46:00,149.5,99.9,0.00,South,181,6.9,10.7,100,0.00,,SKC,0.00,VWS V14.01,2013-02-06 21:46:00,
2013-02-06 16:48:00,149.5,99.9,0.00,WSW,250,5.6,11.6,100,0.00,,SKC,0.00,VWS V14.01,2013-02-06 21:48:00,
2013-02-06 16:51:00,149.5,99.9,0.00,SE,138,6.6,12.4,100,0.00,,SKC,0.00,VWS V14.01,2013-02-06 21:51:00,
2013-02-06 16:54:00,149.5,99.9,0.00,SSE,163,6.3,12.1,100,0.00,,SKC,0.00,VWS V14.01,2013-02-06 21:54:00,
2013-02-06 16:56:00,149.5,99.9,0.00,South,186,3.6,8.7,100,0.00,,SKC,0.00,VWS V14.01,2013-02-06 21:56:00,
2013-02-06 16:57:00,149.5,99.9,0.00,SSE,166,5.2,6.7,100,0.00,,SKC,0.00,VWS V14.01,2013-02-06 21:57:00,
2013-02-06 17:02:00,149.5,99.9,0.00,South,176,5.9,11.2,100,0.00,,SKC,0.00,VWS V14.01,2013-02-06 22:02:00,
2013-02-06 17:03:00,149.5,99.9,0.00,South,183,9.3,10.2,100,0.00,,SKC,0.00,VWS V14.01,2013-02-06 22:03:00,
2013-02-06 17:04:00,149.5,99.9,0.00,SSW,202,6.5,9.3,100,0.00,,SKC,0.00,VWS V14.01,2013-02-06 22:04:00,
2013-02-06 17:08:00,149.5,99.9,0.00,SSE,158,6.4,8.8,100,0.00,,SKC,0.00,VWS V14.01,2013-02-06 22:08:00,
2013-02-06 17:09:00,149.5,99.9,0.00,ESE,110,3.7,9.5,100,0.00,,SKC,0.00,VWS V14.01,2013-02-06 22:09:00,
2013-02-06 17:11:00,149.5,99.9,0.00,South,169,8.4,11.8,100,0.00,,SKC,0.00,VWS V14.01,2013-02-06 22:11:00,
2013-02-06 17:13:00,149.5,99.9,0.00,SSE,167,6.0,10.6,100,0.00,,SKC,0.00,VWS V14.01,2013-02-06 22:13:00,
2013-02-06 17:15:00,149.5,99.9,0.00,SSW,205,7.8,10.4,100,0.00,,SKC,0.00,VWS V14.01,2013-02-06 22:15:00,
2013-02-06 17:20:00,149.5,99.9,0.00,SW,215,9.4,9.4,100,0.00,,SKC,0.00,VWS V14.01,2013-02-06 22:20:00,
2013-02-06 17:21:00,149.5,99.9,0.00,South,187,8.9,10.4,100,0.00,,SKC,0.00,VWS V14.01,2013-02-06 22:21:00,
2013-02-06 17:22:00,149.5,99.9,0.00,SE,127,4.1,8.9,100,0.00,,SKC,0.00,VWS V14.01,2013-02-06 22:22:00,
2013-02-06 17:25:00,149.5,99.9,0.00,SSW,194,8.3,8.9,100,0.00,,SKC,0.00,VWS V14.01,2013-02-06 22:25:00,
2013-02-06 17:26:00,149.5,99.9,0.00,South,187,6.8,8.3,100,0.00,,SKC,0.00,VWS V14.01,2013-02-06 22:26:00,
2013-02-06 17:27:00,149.5,99.9,0.00,South,173,4.7,9.3,100,0.00,,SKC,0.00,VWS V14.01,2013-02-06 22:27:00,
2013-02-06 17:30:00,149.5,99.9,0.00,SE,128,8.4,8.6,100,0.00,,SKC,0.00,VWS V14.01,2013-02-06 22:30:00,
2013-02-06 17:31:00,149.5,99.9,0.00,South,180,4.8,9.5,100,0.00,,SKC,0.00,VWS V14.01,2013-02-06 22:31:00,
2013-02-06 17:35:00,149.5,99.9,0.00,SSE,150,4.5,8.5,100,0.00,,SKC,0.00,VWS V14.01,2013-02-06 22:35:00,
2013-02-06 17:36:00,149.5,99.9,0.00,SW,215,7.3,9.1,100,0.00,,SKC,0.00,VWS V14.01,2013-02-06 22:36:00,
2013-02-06 17:41:00,149.5,99.9,0.00,SSE,150,8.4,8.4,100,0.00,,SKC,0.00,VWS V14.01,2013-02-06 22:41:00,
2013-02-06 17:45:00,149.5,99.9,0.00,SSE,160,5.5,9.9,100,0.00,,SKC,0.00,VWS V14.01,2013-02-06 22:45:00,
2013-02-06 17:46:00,149.5,99.9,0.00,SSE,148,5.7,7.6,100,0.00,,SKC,0.00,VWS V14.01,2013-02-06 22:46:00,
2013-02-06 17:47:00,149.5,99.9,0.00,SSE,162,4.7,7.3,100,0.00,,SKC,0.00,VWS V14.01,2013-02-06 22:47:00,
2013-02-06 17:50:00,149.5,99.9,0.00,South,169,4.2,4.2,100,0.00,,SKC,0.00,VWS V14.01,2013-02-06 22:50:00,
2013-02-06 17:52:00,149.5,99.9,0.00,South,186,8.0,8.0,100,0.00,,SKC,0.00,VWS V14.01,2013-02-06 22:52:00,
2013-02-06 17:55:00,149.5,99.9,0.00,South,188,6.0,6.0,100,0.00,,SKC,0.00,VWS V14.01,2013-02-06 22:55:00,
2013-02-06 17:57:00,149.5,99.9,0.00,SSE,160,6.3,7.5,100,0.00,,SKC,0.00,VWS V14.01,2013-02-06 22:57:00,
2013-02-06 18:00:00,149.5,99.9,0.00,SSE,152,7.8,7.8,100,0.00,,SKC,0.00,VWS V14.01,2013-02-06 23:00:00,
2013-02-06 18:01:00,149.5,99.9,0.00,SE,129,3.7,7.8,100,0.00,,SKC,0.00,VWS V14.01,2013-02-06 23:01:00,
2013-02-06 18:03:00,149.5,99.9,0.00,SSE,156,6.3,8.3,100,0.00,,SKC,0.00,VWS V14.01,2013-02-06 23:03:00,
2013-02-06 18:05:00,149.5,99.9,0.00,SSE,163,5.0,5.0,100,0.00,,SKC,0.00,VWS V14.01,2013-02-06 23:05:00,
2013-02-06 18:06:00,149.5,99.9,0.00,SE,146,4.3,9.5,100,0.00,,SKC,0.00,VWS V14.01,2013-02-06 23:06:00,
2013-02-06 18:08:00,149.5,99.9,0.00,SSE,167,4.5,10.1,100,0.00,,SKC,0.00,VWS V14.01,2013-02-06 23:08:00,
2013-02-06 18:12:00,149.5,99.9,0.00,SSE,167,2.8,6.0,100,0.00,,SKC,0.00,VWS V14.01,2013-02-06 23:12:00,
2013-02-06 18:13:00,149.5,99.9,0.00,SW,226,6.0,7.8,100,0.00,,SKC,0.00,VWS V14.01,2013-02-06 23:13:00,
2013-02-06 18:15:00,149.5,99.9,0.00,SE,139,5.3,7.1,100,0.00,,SKC,0.00,VWS V14.01,2013-02-06 23:15:00,
2013-02-06 18:18:00,149.5,99.9,0.00,SSE,149,7.1,8.0,100,0.00,,SKC,0.00,VWS V14.01,2013-02-06 23:18:00,
2013-02-06 18:21:00,149.5,99.9,0.00,SSE,162,4.3,7.6,100,0.00,,SKC,0.00,VWS V14.01,2013-02-06 23:21:00,
2013-02-06 18:24:00,149.5,99.9,0.00,South,188,5.8,6.0,100,0.00,,SKC,0.00,VWS V14.01,2013-02-06 23:24:00,
2013-02-06 18:25:00,149.5,99.9,0.00,South,170,7.0,7.1,100,0.00,,SKC,0.00,VWS V14.01,2013-02-06 23:25:00,
2013-02-06 18:29:00,149.5,99.9,0.00,SSE,153,4.2,6.7,100,0.00,,SKC,0.00,VWS V14.01,2013-02-06 23:29:00,
2013-02-06 18:31:00,149.5,99.9,0.00,South,173,5.2,6.2,100,0.00,,SKC,0.00,VWS V14.01,2013-02-06 23:31:00,
2013-02-06 18:32:00,149.5,99.9,0.00,SE,145,3.1,6.0,100,0.00,,SKC,0.00,VWS V14.01,2013-02-06 23:32:00,
2013-02-06 18:35:00,149.5,99.9,0.00,SSE,166,3.5,3.9,100,0.00,,SKC,0.00,VWS V14.01,2013-02-06 23:35:00,
2013-02-06 18:38:00,149.5,99.9,0.00,SSE,159,4.8,6.6,100,0.00,,SKC,0.00,VWS V14.01,2013-02-06 23:38:00,
2013-02-06 18:40:00,149.5,99.9,0.00,SE,146,2.0,4.4,100,0.00,,SKC,0.00,VWS V14.01,2013-02-06 23:40:00,
2013-02-06 18:43:00,149.5,99.9,0.00,South,174,3.5,4.5,100,0.00,,SKC,0.00,VWS V14.01,2013-02-06 23:43:00,
2013-02-06 18:45:00,149.5,99.9,0.00,SSW,208,2.2,3.2,100,0.00,,SKC,0.00,VWS V14.01,2013-02-06 23:45:00,
2013-02-06 18:48:00,149.5,99.9,0.00,SSW,202,5.0,6.8,100,0.00,,SKC,0.00,VWS V14.01,2013-02-06 23:48:00,
2013-02-06 18:50:00,149.5,99.9,0.00,SSE,153,4.3,4.7,100,0.00,,SKC,0.00,VWS V14.01,2013-02-06 23:50:00,
2013-02-06 18:51:00,149.5,99.9,0.00,SE,145,4.3,4.6,100,0.00,,SKC,0.00,VWS V14.01,2013-02-06 23:51:00,
2013-02-06 18:53:00,149.5,99.9,0.00,South,184,2.4,5.0,100,0.00,,SKC,0.00,VWS V14.01,2013-02-06 23:53:00,
2013-02-06 18:55:00,149.5,99.9,0.00,SSE,162,3.7,4.7,100,0.00,,SKC,0.00,VWS V14.01,2013-02-06 23:55:00,
2013-02-06 19:00:00,149.5,99.9,0.00,South,181,2.5,5.7,100,0.00,,SKC,0.00,VWS V14.01,2013-02-07 00:00:00,
2013-02-06 19:01:00,149.5,99.9,0.00,SSE,153,4.0,5.7,100,0.00,,SKC,0.00,VWS V14.01,2013-02-07 00:01:00,
2013-02-06 19:05:00,149.5,99.9,0.00,SSE,162,3.2,6.6,100,0.00,,SKC,0.00,VWS V14.01,2013-02-07 00:05:00,
2013-02-06 19:06:00,149.5,99.9,0.00,SE,143,3.9,4.2,100,0.00,,SKC,0.00,VWS V14.01,2013-02-07 00:06:00,
2013-02-06 19:07:00,149.5,99.9,0.00,South,172,1.7,6.6,100,0.00,,SKC,0.00,VWS V14.01,2013-02-07 00:07:00,
2013-02-06 19:10:00,149.5,99.9,0.00,SE,136,4.0,5.1,100,0.00,,SKC,0.00,VWS V14.01,2013-02-07 00:10:00,
2013-02-06 19:13:00,149.5,99.9,0.00,SSE,162,4.7,5.4,100,0.00,,SKC,0.00,VWS V14.01,2013-02-07 00:13:00,
2013-02-06 19:14:00,149.5,99.9,0.00,SE,138,2.4,6.5,100,0.00,,SKC,0.00,VWS V14.01,2013-02-07 00:14:00,
2013-02-06 19:15:00,149.5,99.9,0.00,SE,134,7.1,7.3,100,0.00,,SKC,0.00,VWS V14.01,2013-02-07 00:15:00,
2013-02-06 19:19:00,149.5,99.9,0.00,SSE,165,2.5,6.6,100,0.00,,SKC,0.00,VWS V14.01,2013-02-07 00:19:00,
2013-02-06 19:21:00,149.5,99.9,0.00,South,184,3.9,8.6,100,0.00,,SKC,0.00,VWS V14.01,2013-02-07 00:21:00,
2013-02-06 19:25:00,149.5,99.9,0.00,SE,145,5.7,8.8,100,0.00,,SKC,0.00,VWS V14.01,2013-02-07 00:25:00,
2013-02-06 19:29:00,149.5,99.9,0.00,SSE,158,5.0,6.5,100,0.00,,SKC,0.00,VWS V14.01,2013-02-07 00:29:00,
2013-02-06 19:32:00,149.5,99.9,0.00,SE,143,4.7,6.8,100,0.00,,SKC,0.00,VWS V14.01,2013-02-07 00:32:00,
2013-02-06 19:35:00,149.5,99.9,0.00,SE,146,7.4,7.4,100,0.00,,SKC,0.00,VWS V14.01,2013-02-07 00:35:00,
2013-02-06 19:38:00,149.5,99.9,0.00,South,184,5.8,8.6,100,0.00,,SKC,0.00,VWS V14.01,2013-02-07 00:38:00,
2013-02-06 19:40:00,149.5,99.9,0.00,SSE,165,4.5,5.6,100,0.00,,SKC,0.00,VWS V14.01,2013-02-07 00:40:00,
2013-02-06 19:43:00,149.5,99.9,0.00,SSE,165,7.2,7.6,100,0.00,,SKC,0.00,VWS V14.01,2013-02-07 00:43:00,
2013-02-06 19:46:00,149.5,99.9,0.00,SSE,149,4.3,6.0,100,0.00,,SKC,0.00,VWS V14.01,2013-02-07 00:46:00,
2013-02-06 19:47:00,149.5,99.9,0.00,SE,141,3.5,6.6,100,0.00,,SKC,0.00,VWS V14.01,2013-02-07 00:47:00,
2013-02-06 19:51:00,149.5,99.9,0.00,SSE,166,8.6,8.6,100,0.00,,SKC,0.00,VWS V14.01,2013-02-07 00:51:00,
2013-02-06 19:52:00,149.5,99.9,0.00,SE,135,8.3,8.6,100,0.00,,SKC,0.00,VWS V14.01,2013-02-07 00:52:00,
2013-02-06 19:56:00,149.5,99.9,0.00,SSE,159,6.2,6.2,100,0.00,,SKC,0.00,VWS V14.01,2013-02-07 00:56:00,
2013-02-06 19:57:00,149.5,99.9,0.00,South,172,6.5,7.8,100,0.00,,SKC,0.00,VWS V14.01,2013-02-07 00:57:00,
2013-02-06 19:58:00,149.5,99.9,0.00,SE,145,5.7,8.3,100,0.00,,SKC,0.00,VWS V14.01,2013-02-07 00:58:00,
2013-02-06 20:02:00,149.5,99.9,0.00,SSE,159,4.5,6.5,100,0.00,,SKC,0.00,VWS V14.01,2013-02-07 01:02:00,
2013-02-06 20:03:00,149.5,99.9,0.00,South,173,4.3,7.3,100,0.00,,SKC,0.00,VWS V14.01,2013-02-07 01:03:00,
2013-02-06 20:08:00,149.5,99.9,0.00,SE,134,7.2,9.6,100,0.00,,SKC,0.00,VWS V14.01,2013-02-07 01:08:00,
2013-02-06 20:10:00,149.5,99.9,0.00,South,183,2.5,8.9,100,0.00,,SKC,0.00,VWS V14.01,2013-02-07 01:10:00,
2013-02-06 20:12:00,149.5,99.9,0.00,SSE,150,7.6,9.9,100,0.00,,SKC,0.00,VWS V14.01,2013-02-07 01:12:00,
2013-02-06 20:15:00,149.5,99.9,0.00,SE,128,2.7,8.3,100,0.00,,SKC,0.00,VWS V14.01,2013-02-07 01:15:00,
2013-02-06 20:16:00,149.5,99.9,0.00,SE,146,3.7,9.2,100,0.00,,SKC,0.00,VWS V14.01,2013-02-07 01:16:00,
2013-02-06 20:18:00,149.5,99.9,0.00,SSE,156,3.1,8.4,100,0.00,,SKC,0.00,VWS V14.01,2013-02-07 01:18:00,
2013-02-06 20:21:00,149.5,99.9,0.00,South,188,5.7,6.5,100,0.00,,SKC,0.00,VWS V14.01,2013-02-07 01:21:00,
2013-02-06 20:25:00,149.5,99.9,0.00,East,86,4.0,8.8,100,0.00,,SKC,0.00,VWS V14.01,2013-02-07 01:25:00,
2013-02-06 20:28:00,149.5,99.9,0.00,East,96,3.9,7.1,100,0.00,,SKC,0.00,VWS V14.01,2013-02-07 01:28:00,
2013-02-06 20:30:00,149.5,99.9,0.00,SE,131,3.0,6.8,100,0.00,,SKC,0.00,VWS V14.01,2013-02-07 01:30:00,
2013-02-06 20:35:00,149.5,99.9,0.00,SE,143,6.0,7.3,100,0.00,,SKC,0.00,VWS V14.01,2013-02-07 01:35:00,
2013-02-06 20:36:00,149.5,99.9,0.00,SSE,150,4.8,6.0,100,0.00,,SKC,0.00,VWS V14.01,2013-02-07 01:36:00,
2013-02-06 20:39:00,149.5,99.9,0.00,SE,125,5.5,8.5,100,0.00,,SKC,0.00,VWS V14.01,2013-02-07 01:39:00,
2013-02-06 20:41:00,149.5,99.9,0.00,SSE,159,4.8,6.5,100,0.00,,SKC,0.00,VWS V14.01,2013-02-07 01:41:00,
2013-02-06 20:42:00,149.5,99.9,0.00,SE,127,2.8,5.0,100,0.00,,SKC,0.00,VWS V14.01,2013-02-07 01:42:00,
2013-02-06 20:46:00,149.5,99.9,0.00,SSE,160,6.5,7.6,100,0.00,,SKC,0.00,VWS V14.01,2013-02-07 01:46:00,
2013-02-06 20:48:00,149.5,99.9,0.00,SE,134,3.6,7.8,100,0.00,,SKC,0.00,VWS V14.01,2013-02-07 01:48:00,
2013-02-06 20:53:00,149.5,99.9,0.00,SE,141,3.0,6.7,100,0.00,,SKC,0.00,VWS V14.01,2013-02-07 01:53:00,
2013-02-06 20:55:00,149.5,99.9,0.00,ESE,121,2.4,7.7,100,0.00,,SKC,0.00,VWS V14.01,2013-02-07 01:55:00,
2013-02-06 20:56:00,149.5,99.9,0.00,East,100,0.5,4.2,100,0.00,,SKC,0.00,VWS V14.01,2013-02-07 01:56:00,
2013-02-06 21:00:00,149.5,99.9,0.00,South,188,2.5,6.8,100,0.00,,SKC,0.00,VWS V14.01,2013-02-07 02:00:00,
2013-02-06 21:02:00,149.5,99.9,0.00,East,89,0.9,5.9,100,0.00,,SKC,0.00,VWS V14.01,2013-02-07 02:02:00,
2013-02-06 21:03:00,149.5,99.9,0.00,SE,141,4.2,4.2,100,0.00,,SKC,0.00,VWS V14.01,2013-02-07 02:03:00,
2013-02-06 21:06:00,149.5,99.9,0.00,SSE,150,1.8,5.6,100,0.00,,SKC,0.00,VWS V14.01,2013-02-07 02:06:00,
2013-02-06 21:08:00,149.5,99.9,0.00,SE,146,7.7,7.7,100,0.00,,SKC,0.00,VWS V14.01,2013-02-07 02:08:00,
2013-02-06 21:11:00,149.5,99.9,0.00,SE,145,2.4,3.7,100,0.00,,SKC,0.00,VWS V14.01,2013-02-07 02:11:00,
2013-02-06 21:13:00,149.5,99.9,0.00,SSE,149,2.9,6.8,100,0.00,,SKC,0.00,VWS V14.01,2013-02-07 02:13:00,
2013-02-06 21:14:00,149.5,99.9,0.00,SE,138,6.5,6.6,100,0.00,,SKC,0.00,VWS V14.01,2013-02-07 02:14:00,
2013-02-06 21:19:00,149.5,99.9,0.00,SSE,155,4.2,5.5,100,0.00,,SKC,0.00,VWS V14.01,2013-02-07 02:19:00,
2013-02-06 21:20:00,149.5,99.9,0.00,ESE,117,5.3,5.8,100,0.00,,SKC,0.00,VWS V14.01,2013-02-07 02:20:00,
2013-02-06 21:24:00,149.5,99.9,0.00,South,180,2.7,7.5,100,0.00,,SKC,0.00,VWS V14.01,2013-02-07 02:24:00,
2013-02-06 21:26:00,149.5,99.9,0.00,ENE,72,2.6,5.9,100,0.00,,SKC,0.00,VWS V14.01,2013-02-07 02:26:00,
2013-02-06 21:28:00,149.5,99.9,0.00,East,100,3.4,5.8,100,0.00,,SKC,0.00,VWS V14.01,2013-02-07 02:28:00,
2013-02-06 21:29:00,149.5,99.9,0.00,ESE,121,4.6,6.3,100,0.00,,SKC,0.00,VWS V14.01,2013-02-07 02:29:00,
2013-02-06 21:33:00,149.5,99.9,0.00,South,191,7.3,9.3,100,0.00,,SKC,0.00,VWS V14.01,2013-02-07 02:33:00,
2013-02-06 21:36:00,149.5,99.9,0.00,SE,125,5.0,8.5,100,0.00,,SKC,0.00,VWS V14.01,2013-02-07 02:36:00,
2013-02-06 21:38:00,149.5,99.9,0.00,SSE,148,5.3,8.0,100,0.00,,SKC,0.00,VWS V14.01,2013-02-07 02:38:00,
2013-02-06 21:41:00,149.5,99.9,0.00,SSE,148,5.4,7.5,100,0.00,,SKC,0.00,VWS V14.01,2013-02-07 02:41:00,
2013-02-06 21:42:00,149.5,99.9,0.00,SSE,162,3.8,8.1,100,0.00,,SKC,0.00,VWS V14.01,2013-02-07 02:42:00,
2013-02-06 21:46:00,149.5,99.9,0.00,East,94,4.7,9.8,100,0.00,,SKC,0.00,VWS V14.01,2013-02-07 02:46:00,
2013-02-06 21:48:00,149.5,99.9,0.00,ESE,117,6.3,6.3,100,0.00,,SKC,0.00,VWS V14.01,2013-02-07 02:48:00,
2013-02-06 21:50:00,149.5,99.9,0.00,ESE,117,5.7,7.9,100,0.00,,SKC,0.00,VWS V14.01,2013-02-07 02:50:00,
2013-02-06 21:54:00,149.5,99.9,0.00,ESE,111,7.2,12.2,100,0.00,,SKC,0.00,VWS V14.01,2013-02-07 02:54:00,
2013-02-06 21:55:00,149.5,99.9,0.00,East,98,4.4,10.3,100,0.00,,SKC,0.00,VWS V14.01,2013-02-07 02:55:00,
2013-02-06 21:56:00,149.5,99.9,0.00,SSE,165,5.7,9.0,100,0.00,,SKC,0.00,VWS V14.01,2013-02-07 02:56:00,
2013-02-06 22:00:00,149.5,99.9,0.00,SE,145,5.0,6.2,100,0.00,,SKC,0.00,VWS V14.01,2013-02-07 03:00:00,
2013-02-06 22:01:00,149.5,99.9,0.00,SE,138,5.7,9.2,100,0.00,,SKC,0.00,VWS V14.01,2013-02-07 03:01:00,
2013-02-06 22:02:00,149.5,99.9,0.00,ESE,118,4.6,8.8,100,0.00,,SKC,0.00,VWS V14.01,2013-02-07 03:02:00,
2013-02-06 22:05:00,149.5,99.9,0.00,SE,145,5.3,6.0,100,0.00,,SKC,0.00,VWS V14.01,2013-02-07 03:05:00,
2013-02-06 22:07:00,149.5,99.9,0.00,East,101,1.3,5.5,100,0.00,,SKC,0.00,VWS V14.01,2013-02-07 03:07:00,
2013-02-06 22:08:00,149.5,99.9,0.00,SE,131,5.0,8.0,100,0.00,,SKC,0.00,VWS V14.01,2013-02-07 03:08:00,
2013-02-06 22:14:00,149.5,99.9,0.00,South,180,0.0,6.6,100,0.00,,SKC,0.00,VWS V14.01,2013-02-07 03:14:00,
2013-02-06 22:15:00,149.5,99.9,0.00,SE,138,4.7,8.9,100,0.00,,SKC,0.00,VWS V14.01,2013-02-07 03:15:00,
2013-02-06 22:16:00,149.5,99.9,0.00,ESE,103,2.5,7.3,100,0.00,,SKC,0.00,VWS V14.01,2013-02-07 03:16:00,
2013-02-06 22:20:00,149.5,99.9,0.00,ESE,114,2.7,3.5,100,0.00,,SKC,0.00,VWS V14.01,2013-02-07 03:20:00,
2013-02-06 22:24:00,149.5,99.9,0.00,SE,138,3.9,8.3,100,0.00,,SKC,0.00,VWS V14.01,2013-02-07 03:24:00,
2013-02-06 22:27:00,149.5,99.9,0.00,East,97,4.6,7.6,100,0.00,,SKC,0.00,VWS V14.01,2013-02-07 03:27:00,
2013-02-06 22:30:00,149.5,99.9,0.00,East,83,5.3,6.5,100,0.00,,SKC,0.00,VWS V14.01,2013-02-07 03:30:00,
2013-02-06 22:33:00,149.5,99.9,0.00,East,86,7.0,8.8,100,0.00,,SKC,0.00,VWS V14.01,2013-02-07 03:33:00,
2013-02-06 22:34:00,149.5,99.9,0.00,SE,125,3.1,8.6,100,0.00,,SKC,0.00,VWS V14.01,2013-02-07 03:34:00,
2013-02-06 22:39:00,149.5,99.9,0.00,ENE,73,3.9,9.3,100,0.00,,SKC,0.00,VWS V14.01,2013-02-07 03:39:00,
2013-02-06 22:40:00,149.5,99.9,0.00,East,89,3.2,7.3,100,0.00,,SKC,0.00,VWS V14.01,2013-02-07 03:40:00,
2013-02-06 22:45:00,149.5,99.9,0.00,ENE,60,6.2,6.9,100,0.00,,SKC,0.00,VWS V14.01,2013-02-07 03:45:00,
2013-02-06 22:46:00,149.5,99.9,0.00,ESE,110,3.0,7.6,100,0.00,,SKC,0.00,VWS V14.01,2013-02-07 03:46:00,
2013-02-06 22:47:00,149.5,99.9,0.00,East,101,3.2,6.7,100,0.00,,SKC,0.00,VWS V14.01,2013-02-07 03:47:00,
2013-02-06 22:52:00,149.5,99.9,0.00,ESE,114,5.5,8.1,100,0.00,,SKC,0.00,VWS V14.01,2013-02-07 03:52:00,
2013-02-06 22:54:00,149.5,99.9,0.00,ESE,110,5.0,5.0,100,0.00,,SKC,0.00,VWS V14.01,2013-02-07 03:54:00,
2013-02-06 22:57:00,149.5,99.9,0.00,SE,124,1.5,3.4,100,0.00,,SKC,0.00,VWS V14.01,2013-02-07 03:57:00,
2013-02-06 23:00:00,149.5,99.9,0.00,SSE,159,3.3,5.5,100,0.00,,SKC,0.00,VWS V14.01,2013-02-07 04:00:00,
2013-02-06 23:01:00,149.5,99.9,0.00,East,82,3.2,3.5,100,0.00,,SKC,0.00,VWS V14.01,2013-02-07 04:01:00,
2013-02-06 23:05:00,149.5,99.9,0.00,SE,131,5.6,7.7,100,0.00,,SKC,0.00,VWS V14.01,2013-02-07 04:05:00,
2013-02-06 23:07:00,149.5,99.9,0.00,ESE,104,3.2,5.5,100,0.00,,SKC,0.00,VWS V14.01,2013-02-07 04:07:00,
2013-02-06 23:09:00,149.5,99.9,0.00,SE,136,5.5,6.2,100,0.00,,SKC,0.00,VWS V14.01,2013-02-07 04:09:00,
2013-02-06 23:12:00,149.5,99.9,0.00,SE,138,3.9,5.7,100,0.00,,SKC,0.00,VWS V14.01,2013-02-07 04:12:00,
2013-02-06 23:13:00,149.5,99.9,0.00,ESE,114,7.1,9.3,100,0.00,,SKC,0.00,VWS V14.01,2013-02-07 04:13:00,
2013-02-06 23:14:00,149.5,99.9,0.00,SE,132,3.9,7.1,100,0.00,,SKC,0.00,VWS V14.01,2013-02-07 04:14:00,
2013-02-06 23:17:00,149.5,99.9,0.00,SE,127,7.7,9.3,100,0.00,,SKC,0.00,VWS V14.01,2013-02-07 04:17:00,
2013-02-06 23:20:00,149.5,99.9,0.00,SE,128,5.0,7.3,100,0.00,,SKC,0.00,VWS V14.01,2013-02-07 04:20:00,
2013-02-06 23:22:00,149.5,99.9,0.00,South,174,4.0,5.3,100,0.00,,SKC,0.00,VWS V14.01,2013-02-07 04:22:00,
2013-02-06 23:24:00,149.5,99.9,0.00,ESE,118,4.2,7.6,100,0.00,,SKC,0.00,VWS V14.01,2013-02-07 04:24:00,
2013-02-06 23:26:00,149.5,99.9,0.00,SE,142,3.9,5.2,100,0.00,,SKC,0.00,VWS V14.01,2013-02-07 04:26:00,
2013-02-06 23:29:00,149.5,99.9,0.00,SE,143,7.2,7.2,100,0.00,,SKC,0.00,VWS V14.01,2013-02-07 04:29:00,
2013-02-06 23:31:00,149.5,99.9,0.00,SE,145,4.5,4.5,100,0.00,,SKC,0.00,VWS V14.01,2013-02-07 04:31:00,
2013-02-06 23:34:00,149.5,99.9,0.00,SE,138,6.2,6.2,100,0.00,,SKC,0.00,VWS V14.01,2013-02-07 04:34:00,
2013-02-06 23:35:00,149.5,99.9,0.00,SE,145,3.6,8.8,100,0.00,,SKC,0.00,VWS V14.01,2013-02-07 04:35:00,
2013-02-06 23:40:00,149.5,99.9,0.00,SE,129,4.5,6.8,100,0.00,,SKC,0.00,VWS V14.01,2013-02-07 04:40:00,
2013-02-06 23:41:00,149.5,99.9,0.00,SSE,150,3.0,4.5,100,0.00,,SKC,0.00,VWS V14.01,2013-02-07 04:41:00,
2013-02-06 23:44:00,149.5,99.9,0.00,East,97,2.6,8.9,100,0.01,,SKC,0.01,VWS V14.01,2013-02-07 04:44:00,
2013-02-06 23:46:00,149.5,99.9,0.00,ESE,108,6.3,8.0,100,0.01,,SKC,0.01,VWS V14.01,2013-02-07 04:46:00,
2013-02-06 23:49:00,149.5,99.9,0.00,SSE,148,6.7,10.7,100,0.01,,SKC,0.01,VWS V14.01,2013-02-07 04:49:00,
2013-02-06 23:52:00,149.5,99.9,0.00,East,91,3.7,9.2,100,0.01,,SKC,0.01,VWS V14.01,2013-02-07 04:52:00,
2013-02-06 23:54:00,149.5,99.9,0.00,East,90,5.1,9.2,100,0.01,,SKC,0.01,VWS V14.01,2013-02-07 04:54:00,
2013-02-06 23:57:00,149.5,99.9,0.00,South,173,3.8,7.4,100,0.01,,SKC,0.01,VWS V14.01,2013-02-07 04:57:00,